<?xml version="1.0" encoding="UTF-8" standalone="no" ?>
<gpx xmlns="http://www.topografix.com/GPX/1/1" xmlns:xsi="http://www.w3.org/2001/XMLSchema-instance" xsi:schemaLocation="http://www.topografix.com/GPX/1/1 http://www.topografix.com/GPX/1/1/gpx.xsd" version="1.1" creator="VisuGPX - https://www.visugpx.com">
  <metadata>
    <name>Balade autour du lac du Tolerme</name>
    <desc><![CDATA[Rando pédestre effectuée le 21 octobre 2014.
Pas de difficulté particulière.]]></desc>
  </metadata>
  <trk>
    <name><![CDATA[Track 010]]></name>
    <desc><![CDATA[21 oct. 2014  9:20 am]]></desc>
    <trkseg>
      <trkpt lat="44.8275" lon="2.04859">
        <ele>537.222</ele>
        <time>2014-10-21T07:20:21.584Z</time>
      </trkpt>
      <trkpt lat="44.82758" lon="2.04853">
        <ele>536.974</ele>
        <time>2014-10-21T07:20:31.586Z</time>
      </trkpt>
      <trkpt lat="44.82758" lon="2.04853">
        <ele>536.882</ele>
        <time>2014-10-21T07:20:36.586Z</time>
      </trkpt>
      <trkpt lat="44.82758" lon="2.04853">
        <ele>536.803</ele>
        <time>2014-10-21T07:20:36.686Z</time>
      </trkpt>
      <trkpt lat="44.82754" lon="2.04837">
        <ele>536.622</ele>
        <time>2014-10-21T07:21:00.077Z</time>
      </trkpt>
      <trkpt lat="44.82751" lon="2.04824">
        <ele>540.794</ele>
        <time>2014-10-21T07:21:07.358Z</time>
      </trkpt>
      <trkpt lat="44.82747" lon="2.04811">
        <ele>552.067</ele>
        <time>2014-10-21T07:21:13.648Z</time>
      </trkpt>
      <trkpt lat="44.82749" lon="2.04798">
        <ele>563.719</ele>
        <time>2014-10-21T07:21:18.645Z</time>
      </trkpt>
      <trkpt lat="44.82755" lon="2.04786">
        <ele>568.072</ele>
        <time>2014-10-21T07:21:23.286Z</time>
      </trkpt>
      <trkpt lat="44.8276" lon="2.04775">
        <ele>565.524</ele>
        <time>2014-10-21T07:21:27.587Z</time>
      </trkpt>
      <trkpt lat="44.8276" lon="2.04775">
        <ele>560.648</ele>
        <time>2014-10-21T07:21:44.585Z</time>
      </trkpt>
      <trkpt lat="44.8276" lon="2.04775">
        <ele>557.811</ele>
        <time>2014-10-21T07:21:44.685Z</time>
      </trkpt>
      <trkpt lat="44.82762" lon="2.04754">
        <ele>558.458</ele>
        <time>2014-10-21T07:22:27.520Z</time>
      </trkpt>
      <trkpt lat="44.82767" lon="2.04743">
        <ele>560.714</ele>
        <time>2014-10-21T07:22:47.782Z</time>
      </trkpt>
      <trkpt lat="44.82771" lon="2.04731">
        <ele>560.419</ele>
        <time>2014-10-21T07:23:07.573Z</time>
      </trkpt>
      <trkpt lat="44.82773" lon="2.04717">
        <ele>556.024</ele>
        <time>2014-10-21T07:23:28.692Z</time>
      </trkpt>
      <trkpt lat="44.82775" lon="2.04705">
        <ele>548.637</ele>
        <time>2014-10-21T07:23:48.368Z</time>
      </trkpt>
      <trkpt lat="44.82782" lon="2.04696">
        <ele>539.606</ele>
        <time>2014-10-21T07:24:08.332Z</time>
      </trkpt>
      <trkpt lat="44.82788" lon="2.04686">
        <ele>531.774</ele>
        <time>2014-10-21T07:24:28.162Z</time>
      </trkpt>
      <trkpt lat="44.82792" lon="2.04675">
        <ele>527.77</ele>
        <time>2014-10-21T07:24:54.838Z</time>
      </trkpt>
      <trkpt lat="44.82797" lon="2.04664">
        <ele>527.411</ele>
        <time>2014-10-21T07:25:21.628Z</time>
      </trkpt>
      <trkpt lat="44.82805" lon="2.04656">
        <ele>528.972</ele>
        <time>2014-10-21T07:25:49.745Z</time>
      </trkpt>
      <trkpt lat="44.82812" lon="2.04646">
        <ele>530.504</ele>
        <time>2014-10-21T07:26:18.259Z</time>
      </trkpt>
      <trkpt lat="44.82818" lon="2.04635">
        <ele>531.122</ele>
        <time>2014-10-21T07:26:48.683Z</time>
      </trkpt>
      <trkpt lat="44.82823" lon="2.04624">
        <ele>531.436</ele>
        <time>2014-10-21T07:27:17.197Z</time>
      </trkpt>
      <trkpt lat="44.8283" lon="2.04614">
        <ele>532.025</ele>
        <time>2014-10-21T07:27:44.067Z</time>
      </trkpt>
      <trkpt lat="44.82836" lon="2.04604">
        <ele>532.879</ele>
        <time>2014-10-21T07:28:13.510Z</time>
      </trkpt>
      <trkpt lat="44.82845" lon="2.04599">
        <ele>534.196</ele>
        <time>2014-10-21T07:28:33.077Z</time>
      </trkpt>
      <trkpt lat="44.82854" lon="2.04595">
        <ele>535.988</ele>
        <time>2014-10-21T07:28:43.969Z</time>
      </trkpt>
      <trkpt lat="44.82864" lon="2.04591">
        <ele>535.502</ele>
        <time>2014-10-21T07:28:53.190Z</time>
      </trkpt>
      <trkpt lat="44.82873" lon="2.04586">
        <ele>531.095</ele>
        <time>2014-10-21T07:29:02.214Z</time>
      </trkpt>
      <trkpt lat="44.82881" lon="2.04581">
        <ele>526.797</ele>
        <time>2014-10-21T07:29:11.337Z</time>
      </trkpt>
      <trkpt lat="44.82887" lon="2.0457">
        <ele>526.275</ele>
        <time>2014-10-21T07:29:19.823Z</time>
      </trkpt>
      <trkpt lat="44.82888" lon="2.04558">
        <ele>527.649</ele>
        <time>2014-10-21T07:29:28.052Z</time>
      </trkpt>
      <trkpt lat="44.82884" lon="2.04546">
        <ele>528.382</ele>
        <time>2014-10-21T07:29:36.381Z</time>
      </trkpt>
      <trkpt lat="44.82876" lon="2.04537">
        <ele>529.023</ele>
        <time>2014-10-21T07:29:45.093Z</time>
      </trkpt>
      <trkpt lat="44.82868" lon="2.04532">
        <ele>530.748</ele>
        <time>2014-10-21T07:29:54.736Z</time>
      </trkpt>
      <trkpt lat="44.8286" lon="2.04526">
        <ele>533.069</ele>
        <time>2014-10-21T07:30:04.406Z</time>
      </trkpt>
      <trkpt lat="44.82853" lon="2.04515">
        <ele>535.104</ele>
        <time>2014-10-21T07:30:13.912Z</time>
      </trkpt>
      <trkpt lat="44.82848" lon="2.04504">
        <ele>536.587</ele>
        <time>2014-10-21T07:30:23.613Z</time>
      </trkpt>
      <trkpt lat="44.82842" lon="2.04494">
        <ele>537.975</ele>
        <time>2014-10-21T07:30:33.775Z</time>
      </trkpt>
      <trkpt lat="44.82837" lon="2.04483">
        <ele>539.82</ele>
        <time>2014-10-21T07:30:43.645Z</time>
      </trkpt>
      <trkpt lat="44.82835" lon="2.04469">
        <ele>541.51</ele>
        <time>2014-10-21T07:30:54.594Z</time>
      </trkpt>
      <trkpt lat="44.82836" lon="2.04455">
        <ele>542.299</ele>
        <time>2014-10-21T07:31:04.697Z</time>
      </trkpt>
      <trkpt lat="44.82845" lon="2.04454">
        <ele>542.167</ele>
        <time>2014-10-21T07:31:13.138Z</time>
      </trkpt>
      <trkpt lat="44.82852" lon="2.04465">
        <ele>541.388</ele>
        <time>2014-10-21T07:31:23.611Z</time>
      </trkpt>
      <trkpt lat="44.82859" lon="2.04474">
        <ele>541.365</ele>
        <time>2014-10-21T07:31:33.069Z</time>
      </trkpt>
      <trkpt lat="44.82866" lon="2.04483">
        <ele>543.745</ele>
        <time>2014-10-21T07:31:41.552Z</time>
      </trkpt>
      <trkpt lat="44.82873" lon="2.04491">
        <ele>547.693</ele>
        <time>2014-10-21T07:31:48.555Z</time>
      </trkpt>
      <trkpt lat="44.82879" lon="2.04501">
        <ele>550.73</ele>
        <time>2014-10-21T07:31:57.030Z</time>
      </trkpt>
      <trkpt lat="44.82888" lon="2.04506">
        <ele>551.326</ele>
        <time>2014-10-21T07:32:06.542Z</time>
      </trkpt>
      <trkpt lat="44.82897" lon="2.04507">
        <ele>548.649</ele>
        <time>2014-10-21T07:32:19.386Z</time>
      </trkpt>
      <trkpt lat="44.82906" lon="2.04508">
        <ele>543.649</ele>
        <time>2014-10-21T07:32:29.330Z</time>
      </trkpt>
      <trkpt lat="44.82915" lon="2.04511">
        <ele>539.77</ele>
        <time>2014-10-21T07:32:39.277Z</time>
      </trkpt>
      <trkpt lat="44.82925" lon="2.04511">
        <ele>539.282</ele>
        <time>2014-10-21T07:32:52.287Z</time>
      </trkpt>
      <trkpt lat="44.82934" lon="2.04509">
        <ele>541.065</ele>
        <time>2014-10-21T07:33:06.994Z</time>
      </trkpt>
      <trkpt lat="44.82944" lon="2.04506">
        <ele>542.929</ele>
        <time>2014-10-21T07:33:23.821Z</time>
      </trkpt>
      <trkpt lat="44.82954" lon="2.04504">
        <ele>543.632</ele>
        <time>2014-10-21T07:33:36.479Z</time>
      </trkpt>
      <trkpt lat="44.82963" lon="2.04505">
        <ele>543.821</ele>
        <time>2014-10-21T07:33:48.877Z</time>
      </trkpt>
      <trkpt lat="44.82972" lon="2.04503">
        <ele>544.753</ele>
        <time>2014-10-21T07:34:02.083Z</time>
      </trkpt>
      <trkpt lat="44.82981" lon="2.04505">
        <ele>547.901</ele>
        <time>2014-10-21T07:34:14.887Z</time>
      </trkpt>
      <trkpt lat="44.82991" lon="2.04505">
        <ele>553.209</ele>
        <time>2014-10-21T07:34:27.402Z</time>
      </trkpt>
      <trkpt lat="44.83" lon="2.04506">
        <ele>557.939</ele>
        <time>2014-10-21T07:34:39.748Z</time>
      </trkpt>
      <trkpt lat="44.83009" lon="2.04509">
        <ele>559.071</ele>
        <time>2014-10-21T07:34:52.389Z</time>
      </trkpt>
      <trkpt lat="44.83019" lon="2.04508">
        <ele>556.603</ele>
        <time>2014-10-21T07:35:02.220Z</time>
      </trkpt>
      <trkpt lat="44.83028" lon="2.04511">
        <ele>553.273</ele>
        <time>2014-10-21T07:35:11.194Z</time>
      </trkpt>
      <trkpt lat="44.83037" lon="2.04512">
        <ele>551.815</ele>
        <time>2014-10-21T07:35:21.556Z</time>
      </trkpt>
      <trkpt lat="44.83046" lon="2.04514">
        <ele>552.143</ele>
        <time>2014-10-21T07:35:33.006Z</time>
      </trkpt>
      <trkpt lat="44.83055" lon="2.04518">
        <ele>552.909</ele>
        <time>2014-10-21T07:35:43.528Z</time>
      </trkpt>
      <trkpt lat="44.83064" lon="2.04525">
        <ele>553.432</ele>
        <time>2014-10-21T07:35:54.320Z</time>
      </trkpt>
      <trkpt lat="44.83072" lon="2.04537">
        <ele>554.355</ele>
        <time>2014-10-21T07:36:07.562Z</time>
      </trkpt>
      <trkpt lat="44.83074" lon="2.0455">
        <ele>556.183</ele>
        <time>2014-10-21T07:36:16.547Z</time>
      </trkpt>
      <trkpt lat="44.83073" lon="2.04563">
        <ele>558.295</ele>
        <time>2014-10-21T07:36:24.435Z</time>
      </trkpt>
      <trkpt lat="44.83073" lon="2.04576">
        <ele>560.846</ele>
        <time>2014-10-21T07:36:31.410Z</time>
      </trkpt>
      <trkpt lat="44.83075" lon="2.04592">
        <ele>564.224</ele>
        <time>2014-10-21T07:36:41.130Z</time>
      </trkpt>
      <trkpt lat="44.83072" lon="2.04608">
        <ele>567.009</ele>
        <time>2014-10-21T07:36:55.238Z</time>
      </trkpt>
      <trkpt lat="44.83074" lon="2.04623">
        <ele>567.558</ele>
        <time>2014-10-21T07:37:12.734Z</time>
      </trkpt>
      <trkpt lat="44.83078" lon="2.04637">
        <ele>566.166</ele>
        <time>2014-10-21T07:37:24.985Z</time>
      </trkpt>
      <trkpt lat="44.83081" lon="2.0465">
        <ele>564.82</ele>
        <time>2014-10-21T07:37:34.024Z</time>
      </trkpt>
      <trkpt lat="44.8308" lon="2.04664">
        <ele>565.033</ele>
        <time>2014-10-21T07:37:42.997Z</time>
      </trkpt>
      <trkpt lat="44.83085" lon="2.04674">
        <ele>566.76</ele>
        <time>2014-10-21T07:37:53.250Z</time>
      </trkpt>
      <trkpt lat="44.8309" lon="2.04686">
        <ele>569.411</ele>
        <time>2014-10-21T07:38:04.591Z</time>
      </trkpt>
      <trkpt lat="44.8309" lon="2.04686">
        <ele>572.004</ele>
        <time>2014-10-21T07:38:13.592Z</time>
      </trkpt>
      <trkpt lat="44.8309" lon="2.04686">
        <ele>573.233</ele>
        <time>2014-10-21T07:39:07.756Z</time>
      </trkpt>
      <trkpt lat="44.831" lon="2.04695">
        <ele>572.872</ele>
        <time>2014-10-21T07:40:29.107Z</time>
      </trkpt>
      <trkpt lat="44.83109" lon="2.04697">
        <ele>572.324</ele>
        <time>2014-10-21T07:40:38.007Z</time>
      </trkpt>
      <trkpt lat="44.83119" lon="2.047">
        <ele>573.004</ele>
        <time>2014-10-21T07:40:45.750Z</time>
      </trkpt>
      <trkpt lat="44.83127" lon="2.04703">
        <ele>574.678</ele>
        <time>2014-10-21T07:40:53.128Z</time>
      </trkpt>
      <trkpt lat="44.83137" lon="2.04703">
        <ele>576.675</ele>
        <time>2014-10-21T07:41:02.498Z</time>
      </trkpt>
      <trkpt lat="44.83146" lon="2.04699">
        <ele>578.682</ele>
        <time>2014-10-21T07:41:13.261Z</time>
      </trkpt>
      <trkpt lat="44.83151" lon="2.04688">
        <ele>578.674</ele>
        <time>2014-10-21T07:41:21.911Z</time>
      </trkpt>
      <trkpt lat="44.83156" lon="2.04675">
        <ele>575.322</ele>
        <time>2014-10-21T07:41:30.133Z</time>
      </trkpt>
      <trkpt lat="44.83162" lon="2.04665">
        <ele>571.005</ele>
        <time>2014-10-21T07:41:37.876Z</time>
      </trkpt>
      <trkpt lat="44.83167" lon="2.04653">
        <ele>568.307</ele>
        <time>2014-10-21T07:41:45.263Z</time>
      </trkpt>
      <trkpt lat="44.83173" lon="2.04642">
        <ele>567.346</ele>
        <time>2014-10-21T07:41:52.145Z</time>
      </trkpt>
      <trkpt lat="44.83179" lon="2.04632">
        <ele>567.643</ele>
        <time>2014-10-21T07:41:59.112Z</time>
      </trkpt>
      <trkpt lat="44.83184" lon="2.0462">
        <ele>568.888</ele>
        <time>2014-10-21T07:42:06.838Z</time>
      </trkpt>
      <trkpt lat="44.83192" lon="2.04612">
        <ele>570.519</ele>
        <time>2014-10-21T07:42:14.646Z</time>
      </trkpt>
      <trkpt lat="44.83199" lon="2.04604">
        <ele>571.047</ele>
        <time>2014-10-21T07:42:21.880Z</time>
      </trkpt>
      <trkpt lat="44.83207" lon="2.04595">
        <ele>569.818</ele>
        <time>2014-10-21T07:42:29.541Z</time>
      </trkpt>
      <trkpt lat="44.83215" lon="2.04589">
        <ele>568.177</ele>
        <time>2014-10-21T07:42:37.215Z</time>
      </trkpt>
      <trkpt lat="44.83223" lon="2.04582">
        <ele>567.9</ele>
        <time>2014-10-21T07:42:45.733Z</time>
      </trkpt>
      <trkpt lat="44.83233" lon="2.04578">
        <ele>569.149</ele>
        <time>2014-10-21T07:42:53.354Z</time>
      </trkpt>
      <trkpt lat="44.83242" lon="2.04574">
        <ele>570.697</ele>
        <time>2014-10-21T07:43:00.843Z</time>
      </trkpt>
      <trkpt lat="44.83251" lon="2.04567">
        <ele>571.31</ele>
        <time>2014-10-21T07:43:08.461Z</time>
      </trkpt>
      <trkpt lat="44.83259" lon="2.04557">
        <ele>570.932</ele>
        <time>2014-10-21T07:43:16.317Z</time>
      </trkpt>
      <trkpt lat="44.83266" lon="2.04549">
        <ele>570.322</ele>
        <time>2014-10-21T07:43:23.734Z</time>
      </trkpt>
      <trkpt lat="44.83273" lon="2.04541">
        <ele>570.089</ele>
        <time>2014-10-21T07:43:31.235Z</time>
      </trkpt>
      <trkpt lat="44.83281" lon="2.04533">
        <ele>570.178</ele>
        <time>2014-10-21T07:43:39.080Z</time>
      </trkpt>
      <trkpt lat="44.83288" lon="2.04525">
        <ele>570.143</ele>
        <time>2014-10-21T07:43:46.351Z</time>
      </trkpt>
      <trkpt lat="44.83296" lon="2.04517">
        <ele>569.918</ele>
        <time>2014-10-21T07:43:52.953Z</time>
      </trkpt>
      <trkpt lat="44.83304" lon="2.0451">
        <ele>569.918</ele>
        <time>2014-10-21T07:43:59.064Z</time>
      </trkpt>
      <trkpt lat="44.83312" lon="2.04503">
        <ele>570.324</ele>
        <time>2014-10-21T07:44:05.314Z</time>
      </trkpt>
      <trkpt lat="44.8332" lon="2.04497">
        <ele>570.954</ele>
        <time>2014-10-21T07:44:12.268Z</time>
      </trkpt>
      <trkpt lat="44.83329" lon="2.04491">
        <ele>571.51</ele>
        <time>2014-10-21T07:44:19.522Z</time>
      </trkpt>
      <trkpt lat="44.83337" lon="2.04486">
        <ele>571.531</ele>
        <time>2014-10-21T07:44:26.596Z</time>
      </trkpt>
      <trkpt lat="44.83345" lon="2.04481">
        <ele>571.009</ele>
        <time>2014-10-21T07:44:33.970Z</time>
      </trkpt>
      <trkpt lat="44.83354" lon="2.04476">
        <ele>570.411</ele>
        <time>2014-10-21T07:44:41.682Z</time>
      </trkpt>
      <trkpt lat="44.83363" lon="2.04474">
        <ele>570.081</ele>
        <time>2014-10-21T07:44:49.639Z</time>
      </trkpt>
      <trkpt lat="44.83371" lon="2.04466">
        <ele>570.002</ele>
        <time>2014-10-21T07:44:58.117Z</time>
      </trkpt>
      <trkpt lat="44.83377" lon="2.04455">
        <ele>569.93</ele>
        <time>2014-10-21T07:45:08.747Z</time>
      </trkpt>
      <trkpt lat="44.83372" lon="2.04442">
        <ele>569.708</ele>
        <time>2014-10-21T07:45:20.329Z</time>
      </trkpt>
      <trkpt lat="44.83367" lon="2.04431">
        <ele>569.551</ele>
        <time>2014-10-21T07:45:28.521Z</time>
      </trkpt>
      <trkpt lat="44.83363" lon="2.04419">
        <ele>570.468</ele>
        <time>2014-10-21T07:45:35.880Z</time>
      </trkpt>
      <trkpt lat="44.83359" lon="2.04405">
        <ele>573.439</ele>
        <time>2014-10-21T07:45:43.404Z</time>
      </trkpt>
      <trkpt lat="44.83356" lon="2.04391">
        <ele>577.419</ele>
        <time>2014-10-21T07:45:50.824Z</time>
      </trkpt>
      <trkpt lat="44.83352" lon="2.04378">
        <ele>579.407</ele>
        <time>2014-10-21T07:45:58.038Z</time>
      </trkpt>
      <trkpt lat="44.83349" lon="2.04366">
        <ele>577.915</ele>
        <time>2014-10-21T07:46:05.210Z</time>
      </trkpt>
      <trkpt lat="44.83344" lon="2.04354">
        <ele>574.651</ele>
        <time>2014-10-21T07:46:14.647Z</time>
      </trkpt>
      <trkpt lat="44.83339" lon="2.04343">
        <ele>570.925</ele>
        <time>2014-10-21T07:46:23.394Z</time>
      </trkpt>
      <trkpt lat="44.83334" lon="2.04331">
        <ele>566.821</ele>
        <time>2014-10-21T07:46:30.123Z</time>
      </trkpt>
      <trkpt lat="44.83332" lon="2.04318">
        <ele>563.75</ele>
        <time>2014-10-21T07:46:35.983Z</time>
      </trkpt>
      <trkpt lat="44.8333" lon="2.04302">
        <ele>563.091</ele>
        <time>2014-10-21T07:46:42.730Z</time>
      </trkpt>
      <trkpt lat="44.8333" lon="2.04289">
        <ele>564.105</ele>
        <time>2014-10-21T07:46:48.793Z</time>
      </trkpt>
      <trkpt lat="44.83333" lon="2.04276">
        <ele>564.744</ele>
        <time>2014-10-21T07:46:56.227Z</time>
      </trkpt>
      <trkpt lat="44.83339" lon="2.04266">
        <ele>563.829</ele>
        <time>2014-10-21T07:47:03.720Z</time>
      </trkpt>
      <trkpt lat="44.83346" lon="2.04255">
        <ele>562.362</ele>
        <time>2014-10-21T07:47:11.016Z</time>
      </trkpt>
      <trkpt lat="44.83352" lon="2.04244">
        <ele>561.354</ele>
        <time>2014-10-21T07:47:18.652Z</time>
      </trkpt>
      <trkpt lat="44.83358" lon="2.04233">
        <ele>560.678</ele>
        <time>2014-10-21T07:47:25.938Z</time>
      </trkpt>
      <trkpt lat="44.83365" lon="2.04224">
        <ele>560.266</ele>
        <time>2014-10-21T07:47:33.209Z</time>
      </trkpt>
      <trkpt lat="44.83372" lon="2.04215">
        <ele>560.803</ele>
        <time>2014-10-21T07:47:40.596Z</time>
      </trkpt>
      <trkpt lat="44.83372" lon="2.04215">
        <ele>562.518</ele>
        <time>2014-10-21T07:47:51.595Z</time>
      </trkpt>
      <trkpt lat="44.83372" lon="2.04215">
        <ele>563.862</ele>
        <time>2014-10-21T07:48:13.425Z</time>
      </trkpt>
      <trkpt lat="44.83383" lon="2.04204">
        <ele>563.605</ele>
        <time>2014-10-21T07:49:04.035Z</time>
      </trkpt>
      <trkpt lat="44.83391" lon="2.04197">
        <ele>562.607</ele>
        <time>2014-10-21T07:49:14.299Z</time>
      </trkpt>
      <trkpt lat="44.83399" lon="2.04188">
        <ele>561.853</ele>
        <time>2014-10-21T07:49:22.599Z</time>
      </trkpt>
      <trkpt lat="44.83408" lon="2.04187">
        <ele>561.425</ele>
        <time>2014-10-21T07:49:29.220Z</time>
      </trkpt>
      <trkpt lat="44.83418" lon="2.04186">
        <ele>562.077</ele>
        <time>2014-10-21T07:49:35.918Z</time>
      </trkpt>
      <trkpt lat="44.83428" lon="2.04187">
        <ele>564.308</ele>
        <time>2014-10-21T07:49:43.344Z</time>
      </trkpt>
      <trkpt lat="44.83437" lon="2.04189">
        <ele>567.471</ele>
        <time>2014-10-21T07:49:51.533Z</time>
      </trkpt>
      <trkpt lat="44.83446" lon="2.0419">
        <ele>571.339</ele>
        <time>2014-10-21T07:49:59.284Z</time>
      </trkpt>
      <trkpt lat="44.83456" lon="2.0419">
        <ele>575.44</ele>
        <time>2014-10-21T07:50:08.624Z</time>
      </trkpt>
      <trkpt lat="44.83463" lon="2.04199">
        <ele>578.171</ele>
        <time>2014-10-21T07:50:18.568Z</time>
      </trkpt>
      <trkpt lat="44.83468" lon="2.04211">
        <ele>579.382</ele>
        <time>2014-10-21T07:50:27.713Z</time>
      </trkpt>
      <trkpt lat="44.8347" lon="2.04224">
        <ele>579.686</ele>
        <time>2014-10-21T07:50:37.489Z</time>
      </trkpt>
      <trkpt lat="44.83473" lon="2.04236">
        <ele>578.63</ele>
        <time>2014-10-21T07:50:47.424Z</time>
      </trkpt>
      <trkpt lat="44.83476" lon="2.04249">
        <ele>576.455</ele>
        <time>2014-10-21T07:50:58.891Z</time>
      </trkpt>
      <trkpt lat="44.83471" lon="2.0426">
        <ele>574.986</ele>
        <time>2014-10-21T07:51:11.268Z</time>
      </trkpt>
      <trkpt lat="44.83472" lon="2.04273">
        <ele>575.582</ele>
        <time>2014-10-21T07:51:24.977Z</time>
      </trkpt>
      <trkpt lat="44.83475" lon="2.04286">
        <ele>578.006</ele>
        <time>2014-10-21T07:51:35.628Z</time>
      </trkpt>
      <trkpt lat="44.8348" lon="2.04298">
        <ele>581.076</ele>
        <time>2014-10-21T07:51:44.678Z</time>
      </trkpt>
      <trkpt lat="44.83484" lon="2.0431">
        <ele>584.435</ele>
        <time>2014-10-21T07:51:53.760Z</time>
      </trkpt>
      <trkpt lat="44.83489" lon="2.04322">
        <ele>587.942</ele>
        <time>2014-10-21T07:52:03.911Z</time>
      </trkpt>
      <trkpt lat="44.83494" lon="2.04333">
        <ele>590.426</ele>
        <time>2014-10-21T07:52:14.316Z</time>
      </trkpt>
      <trkpt lat="44.83501" lon="2.04343">
        <ele>590.499</ele>
        <time>2014-10-21T07:52:22.501Z</time>
      </trkpt>
      <trkpt lat="44.83506" lon="2.04353">
        <ele>588.464</ele>
        <time>2014-10-21T07:52:30.402Z</time>
      </trkpt>
      <trkpt lat="44.83513" lon="2.04361">
        <ele>586.578</ele>
        <time>2014-10-21T07:52:39.452Z</time>
      </trkpt>
      <trkpt lat="44.83518" lon="2.04372">
        <ele>586.461</ele>
        <time>2014-10-21T07:52:48.810Z</time>
      </trkpt>
      <trkpt lat="44.83524" lon="2.04383">
        <ele>587.454</ele>
        <time>2014-10-21T07:52:57.514Z</time>
      </trkpt>
      <trkpt lat="44.83527" lon="2.04395">
        <ele>588.307</ele>
        <time>2014-10-21T07:53:05.873Z</time>
      </trkpt>
      <trkpt lat="44.83531" lon="2.04407">
        <ele>588.637</ele>
        <time>2014-10-21T07:53:14.637Z</time>
      </trkpt>
      <trkpt lat="44.83535" lon="2.04419">
        <ele>588.61</ele>
        <time>2014-10-21T07:53:23.561Z</time>
      </trkpt>
      <trkpt lat="44.8354" lon="2.04431">
        <ele>588.622</ele>
        <time>2014-10-21T07:53:32.472Z</time>
      </trkpt>
      <trkpt lat="44.83543" lon="2.04443">
        <ele>588.997</ele>
        <time>2014-10-21T07:53:40.503Z</time>
      </trkpt>
      <trkpt lat="44.83548" lon="2.04454">
        <ele>589.652</ele>
        <time>2014-10-21T07:53:48.600Z</time>
      </trkpt>
      <trkpt lat="44.83548" lon="2.04454">
        <ele>590.166</ele>
        <time>2014-10-21T07:53:53.599Z</time>
      </trkpt>
      <trkpt lat="44.83548" lon="2.04454">
        <ele>590.309</ele>
        <time>2014-10-21T07:56:20.364Z</time>
      </trkpt>
      <trkpt lat="44.83548" lon="2.04471">
        <ele>590.037</ele>
        <time>2014-10-21T07:57:02.603Z</time>
      </trkpt>
      <trkpt lat="44.83548" lon="2.04471">
        <ele>589.666</ele>
        <time>2014-10-21T07:57:09.606Z</time>
      </trkpt>
      <trkpt lat="44.83548" lon="2.04471">
        <ele>589.447</ele>
        <time>2014-10-21T07:57:09.706Z</time>
      </trkpt>
      <trkpt lat="44.83545" lon="2.0449">
        <ele>589.355</ele>
        <time>2014-10-21T07:57:37.134Z</time>
      </trkpt>
      <trkpt lat="44.83541" lon="2.04503">
        <ele>589.279</ele>
        <time>2014-10-21T07:57:45.645Z</time>
      </trkpt>
      <trkpt lat="44.83538" lon="2.04517">
        <ele>589.211</ele>
        <time>2014-10-21T07:57:54.503Z</time>
      </trkpt>
      <trkpt lat="44.83535" lon="2.0453">
        <ele>589.097</ele>
        <time>2014-10-21T07:58:03.222Z</time>
      </trkpt>
      <trkpt lat="44.83533" lon="2.04543">
        <ele>588.967</ele>
        <time>2014-10-21T07:58:11.668Z</time>
      </trkpt>
      <trkpt lat="44.83532" lon="2.04556">
        <ele>589.45</ele>
        <time>2014-10-21T07:58:19.461Z</time>
      </trkpt>
      <trkpt lat="44.83529" lon="2.04569">
        <ele>591.039</ele>
        <time>2014-10-21T07:58:27.485Z</time>
      </trkpt>
      <trkpt lat="44.83526" lon="2.04582">
        <ele>592.995</ele>
        <time>2014-10-21T07:58:35.907Z</time>
      </trkpt>
      <trkpt lat="44.83524" lon="2.04595">
        <ele>593.715</ele>
        <time>2014-10-21T07:58:43.215Z</time>
      </trkpt>
      <trkpt lat="44.83521" lon="2.04608">
        <ele>592.672</ele>
        <time>2014-10-21T07:58:50.579Z</time>
      </trkpt>
      <trkpt lat="44.83518" lon="2.04622">
        <ele>591.879</ele>
        <time>2014-10-21T07:58:57.711Z</time>
      </trkpt>
      <trkpt lat="44.83516" lon="2.04635">
        <ele>592.971</ele>
        <time>2014-10-21T07:59:05.108Z</time>
      </trkpt>
      <trkpt lat="44.83514" lon="2.04647">
        <ele>594.437</ele>
        <time>2014-10-21T07:59:12.634Z</time>
      </trkpt>
      <trkpt lat="44.83512" lon="2.0466">
        <ele>594.615</ele>
        <time>2014-10-21T07:59:20.549Z</time>
      </trkpt>
      <trkpt lat="44.83509" lon="2.04672">
        <ele>594.32</ele>
        <time>2014-10-21T07:59:28.386Z</time>
      </trkpt>
      <trkpt lat="44.83506" lon="2.04686">
        <ele>594.708</ele>
        <time>2014-10-21T07:59:36.682Z</time>
      </trkpt>
      <trkpt lat="44.83502" lon="2.04698">
        <ele>595.534</ele>
        <time>2014-10-21T07:59:43.953Z</time>
      </trkpt>
      <trkpt lat="44.83498" lon="2.0471">
        <ele>596.028</ele>
        <time>2014-10-21T07:59:51.786Z</time>
      </trkpt>
      <trkpt lat="44.83494" lon="2.04723">
        <ele>596.002</ele>
        <time>2014-10-21T08:00:00.503Z</time>
      </trkpt>
      <trkpt lat="44.83491" lon="2.04735">
        <ele>596.02</ele>
        <time>2014-10-21T08:00:08.816Z</time>
      </trkpt>
      <trkpt lat="44.83487" lon="2.04747">
        <ele>596.589</ele>
        <time>2014-10-21T08:00:16.529Z</time>
      </trkpt>
      <trkpt lat="44.83484" lon="2.04759">
        <ele>597.432</ele>
        <time>2014-10-21T08:00:23.844Z</time>
      </trkpt>
      <trkpt lat="44.83479" lon="2.0477">
        <ele>598.002</ele>
        <time>2014-10-21T08:00:31.866Z</time>
      </trkpt>
      <trkpt lat="44.83475" lon="2.04782">
        <ele>598.116</ele>
        <time>2014-10-21T08:00:40.959Z</time>
      </trkpt>
      <trkpt lat="44.83471" lon="2.04795">
        <ele>597.741</ele>
        <time>2014-10-21T08:00:49.317Z</time>
      </trkpt>
      <trkpt lat="44.83467" lon="2.04807">
        <ele>597.093</ele>
        <time>2014-10-21T08:00:57.644Z</time>
      </trkpt>
      <trkpt lat="44.83462" lon="2.04818">
        <ele>596.616</ele>
        <time>2014-10-21T08:01:05.452Z</time>
      </trkpt>
      <trkpt lat="44.83456" lon="2.04829">
        <ele>597.564</ele>
        <time>2014-10-21T08:01:14.315Z</time>
      </trkpt>
      <trkpt lat="44.8345" lon="2.04838">
        <ele>600.561</ele>
        <time>2014-10-21T08:01:22.352Z</time>
      </trkpt>
      <trkpt lat="44.83444" lon="2.04848">
        <ele>604.06</ele>
        <time>2014-10-21T08:01:30.277Z</time>
      </trkpt>
      <trkpt lat="44.83439" lon="2.04859">
        <ele>606.265</ele>
        <time>2014-10-21T08:01:37.771Z</time>
      </trkpt>
      <trkpt lat="44.83433" lon="2.0487">
        <ele>607.069</ele>
        <time>2014-10-21T08:01:46.102Z</time>
      </trkpt>
      <trkpt lat="44.83427" lon="2.0488">
        <ele>606.744</ele>
        <time>2014-10-21T08:01:53.630Z</time>
      </trkpt>
      <trkpt lat="44.83421" lon="2.04891">
        <ele>605.673</ele>
        <time>2014-10-21T08:02:00.359Z</time>
      </trkpt>
      <trkpt lat="44.83414" lon="2.049">
        <ele>604.346</ele>
        <time>2014-10-21T08:02:07.117Z</time>
      </trkpt>
      <trkpt lat="44.83408" lon="2.04909">
        <ele>603.172</ele>
        <time>2014-10-21T08:02:13.770Z</time>
      </trkpt>
      <trkpt lat="44.83402" lon="2.04921">
        <ele>602.526</ele>
        <time>2014-10-21T08:02:21.968Z</time>
      </trkpt>
      <trkpt lat="44.83396" lon="2.04931">
        <ele>602.626</ele>
        <time>2014-10-21T08:02:29.602Z</time>
      </trkpt>
      <trkpt lat="44.83393" lon="2.04944">
        <ele>603.12</ele>
        <time>2014-10-21T08:02:37.700Z</time>
      </trkpt>
      <trkpt lat="44.83389" lon="2.04958">
        <ele>604.439</ele>
        <time>2014-10-21T08:02:45.516Z</time>
      </trkpt>
      <trkpt lat="44.83387" lon="2.04971">
        <ele>606.959</ele>
        <time>2014-10-21T08:02:52.862Z</time>
      </trkpt>
      <trkpt lat="44.83384" lon="2.04984">
        <ele>608.686</ele>
        <time>2014-10-21T08:03:00.492Z</time>
      </trkpt>
      <trkpt lat="44.83381" lon="2.04997">
        <ele>607.985</ele>
        <time>2014-10-21T08:03:07.636Z</time>
      </trkpt>
      <trkpt lat="44.83378" lon="2.05009">
        <ele>606.272</ele>
        <time>2014-10-21T08:03:14.551Z</time>
      </trkpt>
      <trkpt lat="44.83376" lon="2.05023">
        <ele>605.765</ele>
        <time>2014-10-21T08:03:22.259Z</time>
      </trkpt>
      <trkpt lat="44.83374" lon="2.05035">
        <ele>606.975</ele>
        <time>2014-10-21T08:03:29.563Z</time>
      </trkpt>
      <trkpt lat="44.83371" lon="2.05048">
        <ele>608.716</ele>
        <time>2014-10-21T08:03:36.993Z</time>
      </trkpt>
      <trkpt lat="44.83369" lon="2.0506">
        <ele>609.953</ele>
        <time>2014-10-21T08:03:44.742Z</time>
      </trkpt>
      <trkpt lat="44.83367" lon="2.05073">
        <ele>610.739</ele>
        <time>2014-10-21T08:03:53.602Z</time>
      </trkpt>
      <trkpt lat="44.83367" lon="2.05073">
        <ele>611.173</ele>
        <time>2014-10-21T08:04:01.601Z</time>
      </trkpt>
      <trkpt lat="44.83367" lon="2.05073">
        <ele>611.203</ele>
        <time>2014-10-21T08:05:32.769Z</time>
      </trkpt>
      <trkpt lat="44.83362" lon="2.05089">
        <ele>610.599</ele>
        <time>2014-10-21T08:05:54.321Z</time>
      </trkpt>
      <trkpt lat="44.8336" lon="2.05102">
        <ele>610.439</ele>
        <time>2014-10-21T08:06:02.612Z</time>
      </trkpt>
      <trkpt lat="44.83358" lon="2.05117">
        <ele>610.687</ele>
        <time>2014-10-21T08:06:11.593Z</time>
      </trkpt>
      <trkpt lat="44.83355" lon="2.0513">
        <ele>611.467</ele>
        <time>2014-10-21T08:06:19.862Z</time>
      </trkpt>
      <trkpt lat="44.83353" lon="2.05143">
        <ele>612.856</ele>
        <time>2014-10-21T08:06:28.140Z</time>
      </trkpt>
      <trkpt lat="44.8335" lon="2.05155">
        <ele>614.702</ele>
        <time>2014-10-21T08:06:35.930Z</time>
      </trkpt>
      <trkpt lat="44.83349" lon="2.05169">
        <ele>616.063</ele>
        <time>2014-10-21T08:06:43.841Z</time>
      </trkpt>
      <trkpt lat="44.83345" lon="2.0518">
        <ele>615.767</ele>
        <time>2014-10-21T08:06:51.329Z</time>
      </trkpt>
      <trkpt lat="44.83342" lon="2.05193">
        <ele>614.095</ele>
        <time>2014-10-21T08:06:59.426Z</time>
      </trkpt>
      <trkpt lat="44.8334" lon="2.05205">
        <ele>613.087</ele>
        <time>2014-10-21T08:07:07.287Z</time>
      </trkpt>
      <trkpt lat="44.83336" lon="2.05217">
        <ele>614.007</ele>
        <time>2014-10-21T08:07:14.278Z</time>
      </trkpt>
      <trkpt lat="44.83331" lon="2.05229">
        <ele>615.423</ele>
        <time>2014-10-21T08:07:21.044Z</time>
      </trkpt>
      <trkpt lat="44.83329" lon="2.05243">
        <ele>615.653</ele>
        <time>2014-10-21T08:07:28.450Z</time>
      </trkpt>
      <trkpt lat="44.83327" lon="2.05257">
        <ele>613.927</ele>
        <time>2014-10-21T08:07:35.296Z</time>
      </trkpt>
      <trkpt lat="44.83327" lon="2.05271">
        <ele>610.629</ele>
        <time>2014-10-21T08:07:42.676Z</time>
      </trkpt>
      <trkpt lat="44.83328" lon="2.05285">
        <ele>608.289</ele>
        <time>2014-10-21T08:07:50.608Z</time>
      </trkpt>
      <trkpt lat="44.83328" lon="2.05285">
        <ele>608.568</ele>
        <time>2014-10-21T08:07:54.617Z</time>
      </trkpt>
      <trkpt lat="44.83322" lon="2.05296">
        <ele>609.542</ele>
        <time>2014-10-21T08:14:04.432Z</time>
      </trkpt>
      <trkpt lat="44.83328" lon="2.05298">
        <ele>609.248</ele>
        <time>2014-10-21T08:19:05.521Z</time>
      </trkpt>
      <trkpt lat="44.83328" lon="2.05298">
        <ele>608.202</ele>
        <time>2014-10-21T08:19:05.621Z</time>
      </trkpt>
      <trkpt lat="44.8332" lon="2.05308">
        <ele>606.658</ele>
        <time>2014-10-21T08:19:34.012Z</time>
      </trkpt>
      <trkpt lat="44.8332" lon="2.0531">
        <ele>604.323</ele>
        <time>2014-10-21T08:19:35.798Z</time>
      </trkpt>
      <trkpt lat="44.83317" lon="2.05323">
        <ele>602.241</ele>
        <time>2014-10-21T08:19:44.852Z</time>
      </trkpt>
      <trkpt lat="44.83312" lon="2.05335">
        <ele>601.336</ele>
        <time>2014-10-21T08:19:53.303Z</time>
      </trkpt>
      <trkpt lat="44.83307" lon="2.05346">
        <ele>601.081</ele>
        <time>2014-10-21T08:20:01.669Z</time>
      </trkpt>
      <trkpt lat="44.833" lon="2.05356">
        <ele>600.878</ele>
        <time>2014-10-21T08:20:10.634Z</time>
      </trkpt>
      <trkpt lat="44.83293" lon="2.05366">
        <ele>600.771</ele>
        <time>2014-10-21T08:20:18.881Z</time>
      </trkpt>
      <trkpt lat="44.83288" lon="2.05377">
        <ele>601.614</ele>
        <time>2014-10-21T08:20:26.602Z</time>
      </trkpt>
      <trkpt lat="44.83283" lon="2.05388">
        <ele>604.038</ele>
        <time>2014-10-21T08:20:34.202Z</time>
      </trkpt>
      <trkpt lat="44.83278" lon="2.054">
        <ele>607.178</ele>
        <time>2014-10-21T08:20:42.690Z</time>
      </trkpt>
      <trkpt lat="44.83273" lon="2.05412">
        <ele>609.368</ele>
        <time>2014-10-21T08:20:50.758Z</time>
      </trkpt>
      <trkpt lat="44.8327" lon="2.05425">
        <ele>609.411</ele>
        <time>2014-10-21T08:20:58.971Z</time>
      </trkpt>
      <trkpt lat="44.83265" lon="2.05437">
        <ele>607.556</ele>
        <time>2014-10-21T08:21:06.711Z</time>
      </trkpt>
      <trkpt lat="44.8326" lon="2.05449">
        <ele>605.563</ele>
        <time>2014-10-21T08:21:14.199Z</time>
      </trkpt>
      <trkpt lat="44.83252" lon="2.05457">
        <ele>604.707</ele>
        <time>2014-10-21T08:21:20.882Z</time>
      </trkpt>
      <trkpt lat="44.83245" lon="2.05466">
        <ele>604.754</ele>
        <time>2014-10-21T08:21:28.501Z</time>
      </trkpt>
      <trkpt lat="44.83237" lon="2.05474">
        <ele>605.661</ele>
        <time>2014-10-21T08:21:37.191Z</time>
      </trkpt>
      <trkpt lat="44.8323" lon="2.05483">
        <ele>607.373</ele>
        <time>2014-10-21T08:21:44.930Z</time>
      </trkpt>
      <trkpt lat="44.83223" lon="2.05492">
        <ele>608.323</ele>
        <time>2014-10-21T08:21:52.144Z</time>
      </trkpt>
      <trkpt lat="44.83216" lon="2.055">
        <ele>607.212</ele>
        <time>2014-10-21T08:21:58.967Z</time>
      </trkpt>
      <trkpt lat="44.83209" lon="2.05509">
        <ele>604.539</ele>
        <time>2014-10-21T08:22:05.838Z</time>
      </trkpt>
      <trkpt lat="44.83201" lon="2.05519">
        <ele>602.147</ele>
        <time>2014-10-21T08:22:13.399Z</time>
      </trkpt>
      <trkpt lat="44.83194" lon="2.05528">
        <ele>601.397</ele>
        <time>2014-10-21T08:22:21.140Z</time>
      </trkpt>
      <trkpt lat="44.83186" lon="2.05538">
        <ele>602.263</ele>
        <time>2014-10-21T08:22:29.023Z</time>
      </trkpt>
      <trkpt lat="44.83179" lon="2.05547">
        <ele>604.116</ele>
        <time>2014-10-21T08:22:35.775Z</time>
      </trkpt>
      <trkpt lat="44.83172" lon="2.05559">
        <ele>606.313</ele>
        <time>2014-10-21T08:22:43.214Z</time>
      </trkpt>
      <trkpt lat="44.83167" lon="2.05571">
        <ele>608.034</ele>
        <time>2014-10-21T08:22:50.831Z</time>
      </trkpt>
      <trkpt lat="44.83166" lon="2.05584">
        <ele>609.294</ele>
        <time>2014-10-21T08:22:58.753Z</time>
      </trkpt>
      <trkpt lat="44.83167" lon="2.05598">
        <ele>610.244</ele>
        <time>2014-10-21T08:23:06.861Z</time>
      </trkpt>
      <trkpt lat="44.83163" lon="2.0561">
        <ele>610.416</ele>
        <time>2014-10-21T08:23:14.852Z</time>
      </trkpt>
      <trkpt lat="44.83158" lon="2.05622">
        <ele>609.302</ele>
        <time>2014-10-21T08:23:23.886Z</time>
      </trkpt>
      <trkpt lat="44.83153" lon="2.05633">
        <ele>607.812</ele>
        <time>2014-10-21T08:23:32.959Z</time>
      </trkpt>
      <trkpt lat="44.83147" lon="2.05645">
        <ele>607.385</ele>
        <time>2014-10-21T08:23:41.321Z</time>
      </trkpt>
      <trkpt lat="44.83144" lon="2.05658">
        <ele>608.039</ele>
        <time>2014-10-21T08:23:49.452Z</time>
      </trkpt>
      <trkpt lat="44.83139" lon="2.0567">
        <ele>608.727</ele>
        <time>2014-10-21T08:23:57.570Z</time>
      </trkpt>
      <trkpt lat="44.83136" lon="2.05683">
        <ele>608.13</ele>
        <time>2014-10-21T08:24:05.907Z</time>
      </trkpt>
      <trkpt lat="44.83131" lon="2.05696">
        <ele>605.662</ele>
        <time>2014-10-21T08:24:14.453Z</time>
      </trkpt>
      <trkpt lat="44.83127" lon="2.05707">
        <ele>602.236</ele>
        <time>2014-10-21T08:24:22.221Z</time>
      </trkpt>
      <trkpt lat="44.83126" lon="2.0572">
        <ele>599.714</ele>
        <time>2014-10-21T08:24:30.231Z</time>
      </trkpt>
      <trkpt lat="44.83122" lon="2.05733">
        <ele>599.415</ele>
        <time>2014-10-21T08:24:38.258Z</time>
      </trkpt>
      <trkpt lat="44.83116" lon="2.05744">
        <ele>600.831</ele>
        <time>2014-10-21T08:24:45.906Z</time>
      </trkpt>
      <trkpt lat="44.83112" lon="2.05757">
        <ele>602.228</ele>
        <time>2014-10-21T08:24:54.695Z</time>
      </trkpt>
      <trkpt lat="44.83106" lon="2.05768">
        <ele>602.796</ele>
        <time>2014-10-21T08:25:04.418Z</time>
      </trkpt>
      <trkpt lat="44.83101" lon="2.0578">
        <ele>602.758</ele>
        <time>2014-10-21T08:25:12.734Z</time>
      </trkpt>
      <trkpt lat="44.83095" lon="2.0579">
        <ele>603.755</ele>
        <time>2014-10-21T08:25:20.155Z</time>
      </trkpt>
      <trkpt lat="44.83087" lon="2.05796">
        <ele>606.747</ele>
        <time>2014-10-21T08:25:27.824Z</time>
      </trkpt>
      <trkpt lat="44.83082" lon="2.05808">
        <ele>609.908</ele>
        <time>2014-10-21T08:25:36.775Z</time>
      </trkpt>
      <trkpt lat="44.83076" lon="2.05819">
        <ele>611.323</ele>
        <time>2014-10-21T08:25:47.279Z</time>
      </trkpt>
      <trkpt lat="44.83066" lon="2.05826">
        <ele>610.29</ele>
        <time>2014-10-21T08:25:57.792Z</time>
      </trkpt>
      <trkpt lat="44.83057" lon="2.05835">
        <ele>605.624</ele>
        <time>2014-10-21T08:26:05.145Z</time>
      </trkpt>
      <trkpt lat="44.83048" lon="2.05843">
        <ele>597.791</ele>
        <time>2014-10-21T08:26:12.051Z</time>
      </trkpt>
      <trkpt lat="44.83038" lon="2.05848">
        <ele>590.221</ele>
        <time>2014-10-21T08:26:21.731Z</time>
      </trkpt>
      <trkpt lat="44.8303" lon="2.05856">
        <ele>586.816</ele>
        <time>2014-10-21T08:26:33.440Z</time>
      </trkpt>
      <trkpt lat="44.83022" lon="2.05862">
        <ele>588.029</ele>
        <time>2014-10-21T08:26:44.387Z</time>
      </trkpt>
      <trkpt lat="44.83013" lon="2.05864">
        <ele>590.783</ele>
        <time>2014-10-21T08:26:51.981Z</time>
      </trkpt>
      <trkpt lat="44.83003" lon="2.05866">
        <ele>594.121</ele>
        <time>2014-10-21T08:26:59.014Z</time>
      </trkpt>
      <trkpt lat="44.82994" lon="2.0587">
        <ele>598.837</ele>
        <time>2014-10-21T08:27:07.581Z</time>
      </trkpt>
      <trkpt lat="44.82984" lon="2.05878">
        <ele>601.662</ele>
        <time>2014-10-21T08:27:18.559Z</time>
      </trkpt>
      <trkpt lat="44.82976" lon="2.05887">
        <ele>599.319</ele>
        <time>2014-10-21T08:27:26.224Z</time>
      </trkpt>
      <trkpt lat="44.82967" lon="2.05893">
        <ele>593.709</ele>
        <time>2014-10-21T08:27:32.768Z</time>
      </trkpt>
      <trkpt lat="44.82958" lon="2.05897">
        <ele>588.131</ele>
        <time>2014-10-21T08:27:40.765Z</time>
      </trkpt>
      <trkpt lat="44.82949" lon="2.05904">
        <ele>584.647</ele>
        <time>2014-10-21T08:27:54.934Z</time>
      </trkpt>
      <trkpt lat="44.8294" lon="2.05914">
        <ele>584.006</ele>
        <time>2014-10-21T08:28:10.272Z</time>
      </trkpt>
      <trkpt lat="44.82929" lon="2.0592">
        <ele>585.393</ele>
        <time>2014-10-21T08:28:22.301Z</time>
      </trkpt>
      <trkpt lat="44.82919" lon="2.05924">
        <ele>587.028</ele>
        <time>2014-10-21T08:28:34.638Z</time>
      </trkpt>
      <trkpt lat="44.82908" lon="2.05922">
        <ele>587.189</ele>
        <time>2014-10-21T08:28:49.058Z</time>
      </trkpt>
      <trkpt lat="44.82898" lon="2.05922">
        <ele>585.79</ele>
        <time>2014-10-21T08:29:01.092Z</time>
      </trkpt>
      <trkpt lat="44.82891" lon="2.05933">
        <ele>584.417</ele>
        <time>2014-10-21T08:29:15.358Z</time>
      </trkpt>
      <trkpt lat="44.82882" lon="2.05935">
        <ele>583.987</ele>
        <time>2014-10-21T08:29:21.032Z</time>
      </trkpt>
      <trkpt lat="44.82873" lon="2.0594">
        <ele>584.156</ele>
        <time>2014-10-21T08:29:26.072Z</time>
      </trkpt>
      <trkpt lat="44.82864" lon="2.05944">
        <ele>584.388</ele>
        <time>2014-10-21T08:29:31.433Z</time>
      </trkpt>
      <trkpt lat="44.82855" lon="2.05945">
        <ele>584.67</ele>
        <time>2014-10-21T08:29:38.063Z</time>
      </trkpt>
      <trkpt lat="44.82846" lon="2.0595">
        <ele>585.294</ele>
        <time>2014-10-21T08:29:45.627Z</time>
      </trkpt>
      <trkpt lat="44.82837" lon="2.05956">
        <ele>586.163</ele>
        <time>2014-10-21T08:29:54.038Z</time>
      </trkpt>
      <trkpt lat="44.82827" lon="2.0596">
        <ele>586.064</ele>
        <time>2014-10-21T08:30:02.573Z</time>
      </trkpt>
      <trkpt lat="44.82819" lon="2.05965">
        <ele>584.314</ele>
        <time>2014-10-21T08:30:10.830Z</time>
      </trkpt>
      <trkpt lat="44.8281" lon="2.05971">
        <ele>581.076</ele>
        <time>2014-10-21T08:30:19.242Z</time>
      </trkpt>
      <trkpt lat="44.82801" lon="2.05974">
        <ele>577.009</ele>
        <time>2014-10-21T08:30:27.460Z</time>
      </trkpt>
      <trkpt lat="44.82792" lon="2.05979">
        <ele>573.64</ele>
        <time>2014-10-21T08:30:36.867Z</time>
      </trkpt>
      <trkpt lat="44.82784" lon="2.05987">
        <ele>572.172</ele>
        <time>2014-10-21T08:30:47.287Z</time>
      </trkpt>
      <trkpt lat="44.82774" lon="2.05991">
        <ele>572.014</ele>
        <time>2014-10-21T08:30:57.129Z</time>
      </trkpt>
      <trkpt lat="44.82764" lon="2.05992">
        <ele>572.666</ele>
        <time>2014-10-21T08:31:06.188Z</time>
      </trkpt>
      <trkpt lat="44.82755" lon="2.05996">
        <ele>573.4</ele>
        <time>2014-10-21T08:31:16.172Z</time>
      </trkpt>
      <trkpt lat="44.82746" lon="2.06002">
        <ele>573.25</ele>
        <time>2014-10-21T08:31:24.992Z</time>
      </trkpt>
      <trkpt lat="44.82737" lon="2.06005">
        <ele>572.412</ele>
        <time>2014-10-21T08:31:33.982Z</time>
      </trkpt>
      <trkpt lat="44.82729" lon="2.0601">
        <ele>573.12</ele>
        <time>2014-10-21T08:31:43.211Z</time>
      </trkpt>
      <trkpt lat="44.8272" lon="2.06014">
        <ele>576.29</ele>
        <time>2014-10-21T08:31:54.064Z</time>
      </trkpt>
      <trkpt lat="44.82713" lon="2.06025">
        <ele>579.037</ele>
        <time>2014-10-21T08:32:01.794Z</time>
      </trkpt>
      <trkpt lat="44.82708" lon="2.06035">
        <ele>577.772</ele>
        <time>2014-10-21T08:32:08.433Z</time>
      </trkpt>
      <trkpt lat="44.82702" lon="2.06046">
        <ele>572.785</ele>
        <time>2014-10-21T08:32:16.091Z</time>
      </trkpt>
      <trkpt lat="44.82699" lon="2.06058">
        <ele>567.212</ele>
        <time>2014-10-21T08:32:25.899Z</time>
      </trkpt>
      <trkpt lat="44.82697" lon="2.06073">
        <ele>563.665</ele>
        <time>2014-10-21T08:32:36.536Z</time>
      </trkpt>
      <trkpt lat="44.82691" lon="2.06085">
        <ele>562.438</ele>
        <time>2014-10-21T08:32:44.321Z</time>
      </trkpt>
      <trkpt lat="44.82684" lon="2.06093">
        <ele>562.545</ele>
        <time>2014-10-21T08:32:50.518Z</time>
      </trkpt>
      <trkpt lat="44.82676" lon="2.06102">
        <ele>563.04</ele>
        <time>2014-10-21T08:32:57.132Z</time>
      </trkpt>
      <trkpt lat="44.82667" lon="2.06107">
        <ele>562.565</ele>
        <time>2014-10-21T08:33:03.391Z</time>
      </trkpt>
      <trkpt lat="44.82658" lon="2.06111">
        <ele>560.242</ele>
        <time>2014-10-21T08:33:10.701Z</time>
      </trkpt>
      <trkpt lat="44.82648" lon="2.06115">
        <ele>557.315</ele>
        <time>2014-10-21T08:33:18.740Z</time>
      </trkpt>
      <trkpt lat="44.82648" lon="2.06115">
        <ele>555.685</ele>
        <time>2014-10-21T08:33:20.619Z</time>
      </trkpt>
      <trkpt lat="44.82648" lon="2.06115">
        <ele>555.589</ele>
        <time>2014-10-21T08:35:12.645Z</time>
      </trkpt>
      <trkpt lat="44.82636" lon="2.06101">
        <ele>555.914</ele>
        <time>2014-10-21T08:35:46.612Z</time>
      </trkpt>
      <trkpt lat="44.82636" lon="2.06101">
        <ele>555.77</ele>
        <time>2014-10-21T08:35:53.629Z</time>
      </trkpt>
      <trkpt lat="44.82636" lon="2.06101">
        <ele>555.354</ele>
        <time>2014-10-21T08:36:15.022Z</time>
      </trkpt>
      <trkpt lat="44.82624" lon="2.06083">
        <ele>555.125</ele>
        <time>2014-10-21T08:37:09.773Z</time>
      </trkpt>
      <trkpt lat="44.82615" lon="2.06088">
        <ele>555.342</ele>
        <time>2014-10-21T08:37:22.861Z</time>
      </trkpt>
      <trkpt lat="44.82615" lon="2.06102">
        <ele>556.045</ele>
        <time>2014-10-21T08:37:32.619Z</time>
      </trkpt>
      <trkpt lat="44.82615" lon="2.06102">
        <ele>556.77</ele>
        <time>2014-10-21T08:37:36.625Z</time>
      </trkpt>
      <trkpt lat="44.82615" lon="2.06102">
        <ele>556.974</ele>
        <time>2014-10-21T08:38:53.262Z</time>
      </trkpt>
      <trkpt lat="44.82606" lon="2.06099">
        <ele>556.308</ele>
        <time>2014-10-21T08:39:39.782Z</time>
      </trkpt>
      <trkpt lat="44.82599" lon="2.0609">
        <ele>555.129</ele>
        <time>2014-10-21T08:40:05.697Z</time>
      </trkpt>
      <trkpt lat="44.82593" lon="2.06082">
        <ele>552.108</ele>
        <time>2014-10-21T08:40:15.622Z</time>
      </trkpt>
      <trkpt lat="44.82593" lon="2.06082">
        <ele>548.392</ele>
        <time>2014-10-21T08:40:16.616Z</time>
      </trkpt>
      <trkpt lat="44.82593" lon="2.06082">
        <ele>546.276</ele>
        <time>2014-10-21T08:40:16.716Z</time>
      </trkpt>
      <trkpt lat="44.82585" lon="2.06073">
        <ele>546.515</ele>
        <time>2014-10-21T08:40:31.584Z</time>
      </trkpt>
      <trkpt lat="44.82581" lon="2.0606">
        <ele>548.113</ele>
        <time>2014-10-21T08:40:41.185Z</time>
      </trkpt>
      <trkpt lat="44.82572" lon="2.06054">
        <ele>549.793</ele>
        <time>2014-10-21T08:40:50.084Z</time>
      </trkpt>
      <trkpt lat="44.82562" lon="2.06051">
        <ele>551.192</ele>
        <time>2014-10-21T08:40:58.002Z</time>
      </trkpt>
      <trkpt lat="44.82553" lon="2.06046">
        <ele>552.349</ele>
        <time>2014-10-21T08:41:05.300Z</time>
      </trkpt>
      <trkpt lat="44.82544" lon="2.0604">
        <ele>553.103</ele>
        <time>2014-10-21T08:41:12.769Z</time>
      </trkpt>
      <trkpt lat="44.82536" lon="2.06034">
        <ele>553.563</ele>
        <time>2014-10-21T08:41:20.242Z</time>
      </trkpt>
      <trkpt lat="44.82527" lon="2.06029">
        <ele>554.232</ele>
        <time>2014-10-21T08:41:27.467Z</time>
      </trkpt>
      <trkpt lat="44.82519" lon="2.06022">
        <ele>554.979</ele>
        <time>2014-10-21T08:41:34.831Z</time>
      </trkpt>
      <trkpt lat="44.82509" lon="2.06017">
        <ele>555.587</ele>
        <time>2014-10-21T08:41:43.113Z</time>
      </trkpt>
      <trkpt lat="44.82501" lon="2.0601">
        <ele>556.347</ele>
        <time>2014-10-21T08:41:52.211Z</time>
      </trkpt>
      <trkpt lat="44.82492" lon="2.06005">
        <ele>557.063</ele>
        <time>2014-10-21T08:42:00.453Z</time>
      </trkpt>
      <trkpt lat="44.82483" lon="2.06002">
        <ele>556.84</ele>
        <time>2014-10-21T08:42:08.067Z</time>
      </trkpt>
      <trkpt lat="44.82474" lon="2.05996">
        <ele>555.603</ele>
        <time>2014-10-21T08:42:15.587Z</time>
      </trkpt>
      <trkpt lat="44.82469" lon="2.05985">
        <ele>554.834</ele>
        <time>2014-10-21T08:42:24.130Z</time>
      </trkpt>
      <trkpt lat="44.8246" lon="2.0598">
        <ele>555.739</ele>
        <time>2014-10-21T08:42:35.983Z</time>
      </trkpt>
      <trkpt lat="44.82451" lon="2.05984">
        <ele>557.365</ele>
        <time>2014-10-21T08:42:46.263Z</time>
      </trkpt>
      <trkpt lat="44.82442" lon="2.05987">
        <ele>557.816</ele>
        <time>2014-10-21T08:42:53.945Z</time>
      </trkpt>
      <trkpt lat="44.82433" lon="2.05993">
        <ele>556.418</ele>
        <time>2014-10-21T08:43:02.629Z</time>
      </trkpt>
      <trkpt lat="44.82433" lon="2.05993">
        <ele>554.498</ele>
        <time>2014-10-21T08:43:07.624Z</time>
      </trkpt>
      <trkpt lat="44.82433" lon="2.05993">
        <ele>553.554</ele>
        <time>2014-10-21T08:43:07.724Z</time>
      </trkpt>
      <trkpt lat="44.82428" lon="2.06004">
        <ele>553.665</ele>
        <time>2014-10-21T08:43:55.621Z</time>
      </trkpt>
      <trkpt lat="44.82428" lon="2.06004">
        <ele>553.763</ele>
        <time>2014-10-21T08:44:00.631Z</time>
      </trkpt>
      <trkpt lat="44.82428" lon="2.06005">
        <ele>553.679</ele>
        <time>2014-10-21T08:44:42.526Z</time>
      </trkpt>
      <trkpt lat="44.82436" lon="2.05981">
        <ele>537.51</ele>
        <time>2014-10-21T08:55:52.259Z</time>
      </trkpt>
      <trkpt lat="44.82444" lon="2.05974">
        <ele>539.832</ele>
        <time>2014-10-21T08:56:05.387Z</time>
      </trkpt>
      <trkpt lat="44.82453" lon="2.05969">
        <ele>546.123</ele>
        <time>2014-10-21T08:56:15.076Z</time>
      </trkpt>
      <trkpt lat="44.82457" lon="2.05957">
        <ele>552.597</ele>
        <time>2014-10-21T08:56:24.730Z</time>
      </trkpt>
      <trkpt lat="44.8245" lon="2.05947">
        <ele>555.653</ele>
        <time>2014-10-21T08:56:33.172Z</time>
      </trkpt>
      <trkpt lat="44.82443" lon="2.0594">
        <ele>556.096</ele>
        <time>2014-10-21T08:56:40.549Z</time>
      </trkpt>
      <trkpt lat="44.82435" lon="2.05932">
        <ele>555.229</ele>
        <time>2014-10-21T08:56:48.736Z</time>
      </trkpt>
      <trkpt lat="44.82427" lon="2.05926">
        <ele>553.776</ele>
        <time>2014-10-21T08:56:57.417Z</time>
      </trkpt>
      <trkpt lat="44.82422" lon="2.05915">
        <ele>552.383</ele>
        <time>2014-10-21T08:57:05.735Z</time>
      </trkpt>
      <trkpt lat="44.82425" lon="2.05901">
        <ele>551.205</ele>
        <time>2014-10-21T08:57:13.956Z</time>
      </trkpt>
      <trkpt lat="44.82425" lon="2.05888">
        <ele>550.364</ele>
        <time>2014-10-21T08:57:22.379Z</time>
      </trkpt>
      <trkpt lat="44.82434" lon="2.05881">
        <ele>549.684</ele>
        <time>2014-10-21T08:57:30.651Z</time>
      </trkpt>
      <trkpt lat="44.82443" lon="2.05876">
        <ele>548.533</ele>
        <time>2014-10-21T08:57:40.296Z</time>
      </trkpt>
      <trkpt lat="44.82445" lon="2.05863">
        <ele>546.734</ele>
        <time>2014-10-21T08:57:49.323Z</time>
      </trkpt>
      <trkpt lat="44.82438" lon="2.05851">
        <ele>544.595</ele>
        <time>2014-10-21T08:57:57.558Z</time>
      </trkpt>
      <trkpt lat="44.8243" lon="2.05844">
        <ele>542.638</ele>
        <time>2014-10-21T08:58:06.420Z</time>
      </trkpt>
      <trkpt lat="44.82421" lon="2.05839">
        <ele>542.393</ele>
        <time>2014-10-21T08:58:16.392Z</time>
      </trkpt>
      <trkpt lat="44.82412" lon="2.05835">
        <ele>544.281</ele>
        <time>2014-10-21T08:58:25.886Z</time>
      </trkpt>
      <trkpt lat="44.82403" lon="2.05829">
        <ele>546.245</ele>
        <time>2014-10-21T08:58:34.050Z</time>
      </trkpt>
      <trkpt lat="44.82395" lon="2.05824">
        <ele>545.513</ele>
        <time>2014-10-21T08:58:41.109Z</time>
      </trkpt>
      <trkpt lat="44.82386" lon="2.05822">
        <ele>542.14</ele>
        <time>2014-10-21T08:58:48.030Z</time>
      </trkpt>
      <trkpt lat="44.82376" lon="2.05818">
        <ele>538.968</ele>
        <time>2014-10-21T08:58:55.742Z</time>
      </trkpt>
      <trkpt lat="44.82367" lon="2.05816">
        <ele>537.901</ele>
        <time>2014-10-21T08:59:02.359Z</time>
      </trkpt>
      <trkpt lat="44.82358" lon="2.05814">
        <ele>538.21</ele>
        <time>2014-10-21T08:59:08.401Z</time>
      </trkpt>
      <trkpt lat="44.82348" lon="2.05814">
        <ele>539.403</ele>
        <time>2014-10-21T08:59:15.617Z</time>
      </trkpt>
      <trkpt lat="44.8234" lon="2.05809">
        <ele>541.393</ele>
        <time>2014-10-21T08:59:22.905Z</time>
      </trkpt>
      <trkpt lat="44.82333" lon="2.05799">
        <ele>542.211</ele>
        <time>2014-10-21T08:59:30.139Z</time>
      </trkpt>
      <trkpt lat="44.8233" lon="2.05785">
        <ele>540.464</ele>
        <time>2014-10-21T08:59:37.761Z</time>
      </trkpt>
      <trkpt lat="44.82331" lon="2.05772">
        <ele>537.868</ele>
        <time>2014-10-21T08:59:44.308Z</time>
      </trkpt>
      <trkpt lat="44.82331" lon="2.0576">
        <ele>536.262</ele>
        <time>2014-10-21T08:59:50.714Z</time>
      </trkpt>
      <trkpt lat="44.82329" lon="2.05746">
        <ele>535.713</ele>
        <time>2014-10-21T08:59:57.787Z</time>
      </trkpt>
      <trkpt lat="44.82329" lon="2.05733">
        <ele>535.705</ele>
        <time>2014-10-21T09:00:04.918Z</time>
      </trkpt>
      <trkpt lat="44.82329" lon="2.05719">
        <ele>535.846</ele>
        <time>2014-10-21T09:00:12.202Z</time>
      </trkpt>
      <trkpt lat="44.82326" lon="2.05706">
        <ele>536.065</ele>
        <time>2014-10-21T09:00:19.172Z</time>
      </trkpt>
      <trkpt lat="44.82323" lon="2.05692">
        <ele>536.818</ele>
        <time>2014-10-21T09:00:26.208Z</time>
      </trkpt>
      <trkpt lat="44.82321" lon="2.0568">
        <ele>538.874</ele>
        <time>2014-10-21T09:00:33.184Z</time>
      </trkpt>
      <trkpt lat="44.82318" lon="2.05667">
        <ele>541.765</ele>
        <time>2014-10-21T09:00:41.346Z</time>
      </trkpt>
      <trkpt lat="44.82316" lon="2.05653">
        <ele>543.175</ele>
        <time>2014-10-21T09:00:49.882Z</time>
      </trkpt>
      <trkpt lat="44.82313" lon="2.05641">
        <ele>541.481</ele>
        <time>2014-10-21T09:00:57.392Z</time>
      </trkpt>
      <trkpt lat="44.82312" lon="2.05627">
        <ele>537.895</ele>
        <time>2014-10-21T09:01:04.834Z</time>
      </trkpt>
      <trkpt lat="44.8231" lon="2.05615">
        <ele>534.9</ele>
        <time>2014-10-21T09:01:11.940Z</time>
      </trkpt>
      <trkpt lat="44.82307" lon="2.05602">
        <ele>533.114</ele>
        <time>2014-10-21T09:01:19.952Z</time>
      </trkpt>
      <trkpt lat="44.82302" lon="2.0559">
        <ele>531.691</ele>
        <time>2014-10-21T09:01:28.175Z</time>
      </trkpt>
      <trkpt lat="44.82298" lon="2.05577">
        <ele>529.974</ele>
        <time>2014-10-21T09:01:36.472Z</time>
      </trkpt>
      <trkpt lat="44.82292" lon="2.05566">
        <ele>527.946</ele>
        <time>2014-10-21T09:01:43.863Z</time>
      </trkpt>
      <trkpt lat="44.82286" lon="2.05555">
        <ele>526.323</ele>
        <time>2014-10-21T09:01:51.031Z</time>
      </trkpt>
      <trkpt lat="44.8228" lon="2.05547">
        <ele>526.141</ele>
        <time>2014-10-21T09:01:58.546Z</time>
      </trkpt>
      <trkpt lat="44.82272" lon="2.05555">
        <ele>527.392</ele>
        <time>2014-10-21T09:02:07.029Z</time>
      </trkpt>
      <trkpt lat="44.82264" lon="2.05562">
        <ele>528.998</ele>
        <time>2014-10-21T09:02:16.397Z</time>
      </trkpt>
      <trkpt lat="44.82256" lon="2.05569">
        <ele>529.826</ele>
        <time>2014-10-21T09:02:24.355Z</time>
      </trkpt>
      <trkpt lat="44.82248" lon="2.05577">
        <ele>529.724</ele>
        <time>2014-10-21T09:02:32.795Z</time>
      </trkpt>
      <trkpt lat="44.8224" lon="2.05586">
        <ele>529.521</ele>
        <time>2014-10-21T09:02:40.693Z</time>
      </trkpt>
      <trkpt lat="44.82232" lon="2.05594">
        <ele>529.872</ele>
        <time>2014-10-21T09:02:48.695Z</time>
      </trkpt>
      <trkpt lat="44.82224" lon="2.05601">
        <ele>530.293</ele>
        <time>2014-10-21T09:02:56.674Z</time>
      </trkpt>
      <trkpt lat="44.82221" lon="2.05614">
        <ele>530.219</ele>
        <time>2014-10-21T09:03:04.949Z</time>
      </trkpt>
      <trkpt lat="44.8222" lon="2.05627">
        <ele>530.15</ele>
        <time>2014-10-21T09:03:12.735Z</time>
      </trkpt>
      <trkpt lat="44.8222" lon="2.0564">
        <ele>530.604</ele>
        <time>2014-10-21T09:03:20.623Z</time>
      </trkpt>
      <trkpt lat="44.82219" lon="2.05653">
        <ele>531.227</ele>
        <time>2014-10-21T09:03:27.885Z</time>
      </trkpt>
      <trkpt lat="44.82218" lon="2.05666">
        <ele>531.607</ele>
        <time>2014-10-21T09:03:35.120Z</time>
      </trkpt>
      <trkpt lat="44.82219" lon="2.05678">
        <ele>531.788</ele>
        <time>2014-10-21T09:03:42.402Z</time>
      </trkpt>
      <trkpt lat="44.82216" lon="2.05691">
        <ele>531.236</ele>
        <time>2014-10-21T09:03:50.031Z</time>
      </trkpt>
      <trkpt lat="44.82213" lon="2.05704">
        <ele>529.619</ele>
        <time>2014-10-21T09:03:58.641Z</time>
      </trkpt>
      <trkpt lat="44.82212" lon="2.05717">
        <ele>528.434</ele>
        <time>2014-10-21T09:04:06.190Z</time>
      </trkpt>
      <trkpt lat="44.8221" lon="2.05731">
        <ele>528.918</ele>
        <time>2014-10-21T09:04:13.935Z</time>
      </trkpt>
      <trkpt lat="44.82208" lon="2.05744">
        <ele>530.467</ele>
        <time>2014-10-21T09:04:20.900Z</time>
      </trkpt>
      <trkpt lat="44.82207" lon="2.05759">
        <ele>531.865</ele>
        <time>2014-10-21T09:04:29.439Z</time>
      </trkpt>
      <trkpt lat="44.822" lon="2.0577">
        <ele>532.305</ele>
        <time>2014-10-21T09:04:37.764Z</time>
      </trkpt>
      <trkpt lat="44.82194" lon="2.05779">
        <ele>531.955</ele>
        <time>2014-10-21T09:04:44.223Z</time>
      </trkpt>
      <trkpt lat="44.82187" lon="2.05789">
        <ele>531.754</ele>
        <time>2014-10-21T09:04:50.860Z</time>
      </trkpt>
      <trkpt lat="44.8218" lon="2.05797">
        <ele>532.05</ele>
        <time>2014-10-21T09:04:57.718Z</time>
      </trkpt>
      <trkpt lat="44.82169" lon="2.05795">
        <ele>531.945</ele>
        <time>2014-10-21T09:05:05.592Z</time>
      </trkpt>
      <trkpt lat="44.8216" lon="2.05792">
        <ele>530.283</ele>
        <time>2014-10-21T09:05:11.970Z</time>
      </trkpt>
      <trkpt lat="44.82151" lon="2.05787">
        <ele>527.472</ele>
        <time>2014-10-21T09:05:18.243Z</time>
      </trkpt>
      <trkpt lat="44.82142" lon="2.05783">
        <ele>525.22</ele>
        <time>2014-10-21T09:05:25.368Z</time>
      </trkpt>
      <trkpt lat="44.82132" lon="2.0578">
        <ele>524.688</ele>
        <time>2014-10-21T09:05:32.515Z</time>
      </trkpt>
      <trkpt lat="44.82123" lon="2.05775">
        <ele>525.87</ele>
        <time>2014-10-21T09:05:39.902Z</time>
      </trkpt>
      <trkpt lat="44.82124" lon="2.0576">
        <ele>528.048</ele>
        <time>2014-10-21T09:05:48.634Z</time>
      </trkpt>
      <trkpt lat="44.82124" lon="2.0576">
        <ele>529.933</ele>
        <time>2014-10-21T09:06:01.629Z</time>
      </trkpt>
      <trkpt lat="44.82124" lon="2.0576">
        <ele>530.493</ele>
        <time>2014-10-21T09:06:11.072Z</time>
      </trkpt>
      <trkpt lat="44.82109" lon="2.05746">
        <ele>529.809</ele>
        <time>2014-10-21T09:06:54.927Z</time>
      </trkpt>
      <trkpt lat="44.82101" lon="2.05739">
        <ele>528.124</ele>
        <time>2014-10-21T09:07:01.618Z</time>
      </trkpt>
      <trkpt lat="44.82098" lon="2.05727">
        <ele>525.885</ele>
        <time>2014-10-21T09:07:07.625Z</time>
      </trkpt>
      <trkpt lat="44.82098" lon="2.05713">
        <ele>524.235</ele>
        <time>2014-10-21T09:07:14.149Z</time>
      </trkpt>
      <trkpt lat="44.82096" lon="2.057">
        <ele>524.014</ele>
        <time>2014-10-21T09:07:21.006Z</time>
      </trkpt>
      <trkpt lat="44.82095" lon="2.05686">
        <ele>525.188</ele>
        <time>2014-10-21T09:07:28.623Z</time>
      </trkpt>
      <trkpt lat="44.82099" lon="2.05672">
        <ele>526.666</ele>
        <time>2014-10-21T09:07:36.867Z</time>
      </trkpt>
      <trkpt lat="44.821" lon="2.05659">
        <ele>527.508</ele>
        <time>2014-10-21T09:07:44.901Z</time>
      </trkpt>
      <trkpt lat="44.82101" lon="2.05646">
        <ele>527.465</ele>
        <time>2014-10-21T09:07:52.703Z</time>
      </trkpt>
      <trkpt lat="44.82104" lon="2.05634">
        <ele>526.618</ele>
        <time>2014-10-21T09:08:00.101Z</time>
      </trkpt>
      <trkpt lat="44.82104" lon="2.05621">
        <ele>525.074</ele>
        <time>2014-10-21T09:08:07.761Z</time>
      </trkpt>
      <trkpt lat="44.82105" lon="2.05608">
        <ele>523.384</ele>
        <time>2014-10-21T09:08:15.493Z</time>
      </trkpt>
      <trkpt lat="44.82105" lon="2.05595">
        <ele>522.383</ele>
        <time>2014-10-21T09:08:23.768Z</time>
      </trkpt>
      <trkpt lat="44.82103" lon="2.05582">
        <ele>522.349</ele>
        <time>2014-10-21T09:08:31.931Z</time>
      </trkpt>
      <trkpt lat="44.82099" lon="2.0557">
        <ele>522.664</ele>
        <time>2014-10-21T09:08:40.085Z</time>
      </trkpt>
      <trkpt lat="44.82094" lon="2.05559">
        <ele>522.616</ele>
        <time>2014-10-21T09:08:48.709Z</time>
      </trkpt>
      <trkpt lat="44.82089" lon="2.05547">
        <ele>522.259</ele>
        <time>2014-10-21T09:08:57.681Z</time>
      </trkpt>
      <trkpt lat="44.82084" lon="2.05535">
        <ele>522.433</ele>
        <time>2014-10-21T09:09:07.457Z</time>
      </trkpt>
      <trkpt lat="44.8208" lon="2.05523">
        <ele>523.622</ele>
        <time>2014-10-21T09:09:17.410Z</time>
      </trkpt>
      <trkpt lat="44.82076" lon="2.0551">
        <ele>525.801</ele>
        <time>2014-10-21T09:09:25.445Z</time>
      </trkpt>
      <trkpt lat="44.82075" lon="2.05497">
        <ele>528.421</ele>
        <time>2014-10-21T09:09:32.451Z</time>
      </trkpt>
      <trkpt lat="44.82076" lon="2.05482">
        <ele>530.303</ele>
        <time>2014-10-21T09:09:40.361Z</time>
      </trkpt>
      <trkpt lat="44.82081" lon="2.05471">
        <ele>531.023</ele>
        <time>2014-10-21T09:09:46.959Z</time>
      </trkpt>
      <trkpt lat="44.82085" lon="2.0546">
        <ele>529.912</ele>
        <time>2014-10-21T09:09:53.687Z</time>
      </trkpt>
      <trkpt lat="44.82091" lon="2.05448">
        <ele>526.841</ele>
        <time>2014-10-21T09:10:01.537Z</time>
      </trkpt>
      <trkpt lat="44.82096" lon="2.05436">
        <ele>524.1</ele>
        <time>2014-10-21T09:10:10.018Z</time>
      </trkpt>
      <trkpt lat="44.821" lon="2.05424">
        <ele>523.762</ele>
        <time>2014-10-21T09:10:18.180Z</time>
      </trkpt>
      <trkpt lat="44.82104" lon="2.05411">
        <ele>525.019</ele>
        <time>2014-10-21T09:10:26.852Z</time>
      </trkpt>
      <trkpt lat="44.82109" lon="2.054">
        <ele>526.521</ele>
        <time>2014-10-21T09:10:34.681Z</time>
      </trkpt>
      <trkpt lat="44.82114" lon="2.05388">
        <ele>527.623</ele>
        <time>2014-10-21T09:10:42.136Z</time>
      </trkpt>
      <trkpt lat="44.82118" lon="2.05377">
        <ele>528.469</ele>
        <time>2014-10-21T09:10:49.365Z</time>
      </trkpt>
      <trkpt lat="44.82123" lon="2.05364">
        <ele>529.481</ele>
        <time>2014-10-21T09:10:57.440Z</time>
      </trkpt>
      <trkpt lat="44.82127" lon="2.05352">
        <ele>530.449</ele>
        <time>2014-10-21T09:11:04.741Z</time>
      </trkpt>
      <trkpt lat="44.82132" lon="2.05341">
        <ele>531.159</ele>
        <time>2014-10-21T09:11:11.817Z</time>
      </trkpt>
      <trkpt lat="44.82137" lon="2.05331">
        <ele>530.991</ele>
        <time>2014-10-21T09:11:18.780Z</time>
      </trkpt>
      <trkpt lat="44.82144" lon="2.0532">
        <ele>529.806</ele>
        <time>2014-10-21T09:11:26.625Z</time>
      </trkpt>
      <trkpt lat="44.8215" lon="2.05311">
        <ele>529.124</ele>
        <time>2014-10-21T09:11:34.855Z</time>
      </trkpt>
      <trkpt lat="44.82159" lon="2.05306">
        <ele>530.076</ele>
        <time>2014-10-21T09:11:43.768Z</time>
      </trkpt>
      <trkpt lat="44.82169" lon="2.05302">
        <ele>532.673</ele>
        <time>2014-10-21T09:11:51.842Z</time>
      </trkpt>
      <trkpt lat="44.82177" lon="2.05298">
        <ele>536.223</ele>
        <time>2014-10-21T09:11:58.321Z</time>
      </trkpt>
      <trkpt lat="44.82187" lon="2.05296">
        <ele>539.168</ele>
        <time>2014-10-21T09:12:05.429Z</time>
      </trkpt>
      <trkpt lat="44.82195" lon="2.0529">
        <ele>540.834</ele>
        <time>2014-10-21T09:12:12.782Z</time>
      </trkpt>
      <trkpt lat="44.82204" lon="2.05284">
        <ele>540.832</ele>
        <time>2014-10-21T09:12:20.277Z</time>
      </trkpt>
      <trkpt lat="44.82212" lon="2.05277">
        <ele>538.715</ele>
        <time>2014-10-21T09:12:27.371Z</time>
      </trkpt>
      <trkpt lat="44.82218" lon="2.05268">
        <ele>534.99</ele>
        <time>2014-10-21T09:12:34.778Z</time>
      </trkpt>
      <trkpt lat="44.82224" lon="2.05256">
        <ele>531.084</ele>
        <time>2014-10-21T09:12:42.810Z</time>
      </trkpt>
      <trkpt lat="44.82229" lon="2.05244">
        <ele>528.519</ele>
        <time>2014-10-21T09:12:50.773Z</time>
      </trkpt>
      <trkpt lat="44.82234" lon="2.05234">
        <ele>527.693</ele>
        <time>2014-10-21T09:12:57.878Z</time>
      </trkpt>
      <trkpt lat="44.82241" lon="2.05224">
        <ele>526.977</ele>
        <time>2014-10-21T09:13:05.009Z</time>
      </trkpt>
      <trkpt lat="44.82247" lon="2.05215">
        <ele>525.181</ele>
        <time>2014-10-21T09:13:12.127Z</time>
      </trkpt>
      <trkpt lat="44.82253" lon="2.05204">
        <ele>524.21</ele>
        <time>2014-10-21T09:13:20.505Z</time>
      </trkpt>
      <trkpt lat="44.82259" lon="2.05193">
        <ele>525.75</ele>
        <time>2014-10-21T09:13:28.578Z</time>
      </trkpt>
      <trkpt lat="44.82263" lon="2.05181">
        <ele>528.327</ele>
        <time>2014-10-21T09:13:36.125Z</time>
      </trkpt>
      <trkpt lat="44.82266" lon="2.05168">
        <ele>529.533</ele>
        <time>2014-10-21T09:13:43.602Z</time>
      </trkpt>
      <trkpt lat="44.82269" lon="2.05155">
        <ele>528.714</ele>
        <time>2014-10-21T09:13:50.738Z</time>
      </trkpt>
      <trkpt lat="44.82271" lon="2.05142">
        <ele>527.121</ele>
        <time>2014-10-21T09:13:58.250Z</time>
      </trkpt>
      <trkpt lat="44.82271" lon="2.05128">
        <ele>525.756</ele>
        <time>2014-10-21T09:14:06.116Z</time>
      </trkpt>
      <trkpt lat="44.82271" lon="2.05115">
        <ele>524.358</ele>
        <time>2014-10-21T09:14:13.818Z</time>
      </trkpt>
      <trkpt lat="44.82272" lon="2.05101">
        <ele>523.138</ele>
        <time>2014-10-21T09:14:21.845Z</time>
      </trkpt>
      <trkpt lat="44.8227" lon="2.05087">
        <ele>522.132</ele>
        <time>2014-10-21T09:14:29.931Z</time>
      </trkpt>
      <trkpt lat="44.82272" lon="2.05074">
        <ele>521.001</ele>
        <time>2014-10-21T09:14:37.079Z</time>
      </trkpt>
      <trkpt lat="44.82275" lon="2.05061">
        <ele>520.446</ele>
        <time>2014-10-21T09:14:44.808Z</time>
      </trkpt>
      <trkpt lat="44.82278" lon="2.05049">
        <ele>521.091</ele>
        <time>2014-10-21T09:14:52.370Z</time>
      </trkpt>
      <trkpt lat="44.82282" lon="2.05037">
        <ele>522.109</ele>
        <time>2014-10-21T09:14:59.674Z</time>
      </trkpt>
      <trkpt lat="44.82287" lon="2.05024">
        <ele>522.646</ele>
        <time>2014-10-21T09:15:07.585Z</time>
      </trkpt>
      <trkpt lat="44.82291" lon="2.0501">
        <ele>523.076</ele>
        <time>2014-10-21T09:15:15.266Z</time>
      </trkpt>
      <trkpt lat="44.82295" lon="2.04998">
        <ele>524.031</ele>
        <time>2014-10-21T09:15:23.009Z</time>
      </trkpt>
      <trkpt lat="44.82297" lon="2.04985">
        <ele>525.216</ele>
        <time>2014-10-21T09:15:30.847Z</time>
      </trkpt>
      <trkpt lat="44.823" lon="2.04973">
        <ele>525.915</ele>
        <time>2014-10-21T09:15:38.209Z</time>
      </trkpt>
      <trkpt lat="44.82303" lon="2.04959">
        <ele>525.655</ele>
        <time>2014-10-21T09:15:45.911Z</time>
      </trkpt>
      <trkpt lat="44.82305" lon="2.04947">
        <ele>524.511</ele>
        <time>2014-10-21T09:15:53.368Z</time>
      </trkpt>
      <trkpt lat="44.82307" lon="2.04933">
        <ele>523.7</ele>
        <time>2014-10-21T09:16:01.146Z</time>
      </trkpt>
      <trkpt lat="44.8231" lon="2.0492">
        <ele>524.122</ele>
        <time>2014-10-21T09:16:09.041Z</time>
      </trkpt>
      <trkpt lat="44.82313" lon="2.04908">
        <ele>525.046</ele>
        <time>2014-10-21T09:16:16.290Z</time>
      </trkpt>
      <trkpt lat="44.82317" lon="2.04896">
        <ele>525.61</ele>
        <time>2014-10-21T09:16:23.332Z</time>
      </trkpt>
      <trkpt lat="44.8232" lon="2.04883">
        <ele>526.174</ele>
        <time>2014-10-21T09:16:30.934Z</time>
      </trkpt>
      <trkpt lat="44.82326" lon="2.04872">
        <ele>527.264</ele>
        <time>2014-10-21T09:16:38.139Z</time>
      </trkpt>
      <trkpt lat="44.8233" lon="2.04861">
        <ele>528.46</ele>
        <time>2014-10-21T09:16:45.350Z</time>
      </trkpt>
      <trkpt lat="44.82335" lon="2.0485">
        <ele>528.7</ele>
        <time>2014-10-21T09:16:52.955Z</time>
      </trkpt>
      <trkpt lat="44.8234" lon="2.0484">
        <ele>527.767</ele>
        <time>2014-10-21T09:17:00.651Z</time>
      </trkpt>
      <trkpt lat="44.82345" lon="2.04828">
        <ele>526.597</ele>
        <time>2014-10-21T09:17:08.140Z</time>
      </trkpt>
      <trkpt lat="44.82347" lon="2.04815">
        <ele>526.019</ele>
        <time>2014-10-21T09:17:15.841Z</time>
      </trkpt>
      <trkpt lat="44.82349" lon="2.04802">
        <ele>525.325</ele>
        <time>2014-10-21T09:17:24.216Z</time>
      </trkpt>
      <trkpt lat="44.82352" lon="2.04789">
        <ele>523.836</ele>
        <time>2014-10-21T09:17:32.406Z</time>
      </trkpt>
      <trkpt lat="44.82355" lon="2.04777">
        <ele>522.327</ele>
        <time>2014-10-21T09:17:39.737Z</time>
      </trkpt>
      <trkpt lat="44.82358" lon="2.04764">
        <ele>521.802</ele>
        <time>2014-10-21T09:17:46.959Z</time>
      </trkpt>
      <trkpt lat="44.82361" lon="2.04751">
        <ele>522.324</ele>
        <time>2014-10-21T09:17:55.315Z</time>
      </trkpt>
      <trkpt lat="44.82363" lon="2.04738">
        <ele>523.677</ele>
        <time>2014-10-21T09:18:03.635Z</time>
      </trkpt>
      <trkpt lat="44.82363" lon="2.04738">
        <ele>524.999</ele>
        <time>2014-10-21T09:18:03.635Z</time>
      </trkpt>
      <trkpt lat="44.82363" lon="2.04738">
        <ele>525.355</ele>
        <time>2014-10-21T09:18:03.735Z</time>
      </trkpt>
      <trkpt lat="44.82365" lon="2.04725">
        <ele>524.537</ele>
        <time>2014-10-21T09:18:52.737Z</time>
      </trkpt>
      <trkpt lat="44.82366" lon="2.04709">
        <ele>524.249</ele>
        <time>2014-10-21T09:19:03.309Z</time>
      </trkpt>
      <trkpt lat="44.82369" lon="2.04696">
        <ele>523.903</ele>
        <time>2014-10-21T09:19:12.025Z</time>
      </trkpt>
      <trkpt lat="44.82371" lon="2.04682">
        <ele>523.483</ele>
        <time>2014-10-21T09:19:21.261Z</time>
      </trkpt>
      <trkpt lat="44.82372" lon="2.04668">
        <ele>522.921</ele>
        <time>2014-10-21T09:19:29.916Z</time>
      </trkpt>
      <trkpt lat="44.82375" lon="2.04655">
        <ele>522.145</ele>
        <time>2014-10-21T09:19:37.826Z</time>
      </trkpt>
      <trkpt lat="44.82377" lon="2.04641">
        <ele>521.625</ele>
        <time>2014-10-21T09:19:45.894Z</time>
      </trkpt>
      <trkpt lat="44.82379" lon="2.04628">
        <ele>521.855</ele>
        <time>2014-10-21T09:19:53.520Z</time>
      </trkpt>
      <trkpt lat="44.8238" lon="2.04616">
        <ele>522.633</ele>
        <time>2014-10-21T09:20:00.839Z</time>
      </trkpt>
      <trkpt lat="44.82381" lon="2.04603">
        <ele>523.683</ele>
        <time>2014-10-21T09:20:08.409Z</time>
      </trkpt>
      <trkpt lat="44.82383" lon="2.04589">
        <ele>524.968</ele>
        <time>2014-10-21T09:20:17.173Z</time>
      </trkpt>
      <trkpt lat="44.82386" lon="2.04576">
        <ele>526.401</ele>
        <time>2014-10-21T09:20:25.405Z</time>
      </trkpt>
      <trkpt lat="44.82388" lon="2.04563">
        <ele>527.712</ele>
        <time>2014-10-21T09:20:33.185Z</time>
      </trkpt>
      <trkpt lat="44.82393" lon="2.04551">
        <ele>528.591</ele>
        <time>2014-10-21T09:20:41.107Z</time>
      </trkpt>
      <trkpt lat="44.82396" lon="2.04539">
        <ele>528.597</ele>
        <time>2014-10-21T09:20:49.378Z</time>
      </trkpt>
      <trkpt lat="44.82399" lon="2.04527">
        <ele>527.729</ele>
        <time>2014-10-21T09:20:57.778Z</time>
      </trkpt>
      <trkpt lat="44.82399" lon="2.04512">
        <ele>526.812</ele>
        <time>2014-10-21T09:21:06.478Z</time>
      </trkpt>
      <trkpt lat="44.824" lon="2.04498">
        <ele>526.505</ele>
        <time>2014-10-21T09:21:14.742Z</time>
      </trkpt>
      <trkpt lat="44.82401" lon="2.04485">
        <ele>526.609</ele>
        <time>2014-10-21T09:21:22.478Z</time>
      </trkpt>
      <trkpt lat="44.824" lon="2.0447">
        <ele>526.633</ele>
        <time>2014-10-21T09:21:31.810Z</time>
      </trkpt>
      <trkpt lat="44.824" lon="2.04456">
        <ele>526.589</ele>
        <time>2014-10-21T09:21:39.297Z</time>
      </trkpt>
      <trkpt lat="44.824" lon="2.04442">
        <ele>526.835</ele>
        <time>2014-10-21T09:21:46.443Z</time>
      </trkpt>
      <trkpt lat="44.82401" lon="2.04428">
        <ele>527.484</ele>
        <time>2014-10-21T09:21:54.081Z</time>
      </trkpt>
      <trkpt lat="44.82401" lon="2.04414">
        <ele>528.394</ele>
        <time>2014-10-21T09:22:02.508Z</time>
      </trkpt>
      <trkpt lat="44.82407" lon="2.04403">
        <ele>529.266</ele>
        <time>2014-10-21T09:22:10.407Z</time>
      </trkpt>
      <trkpt lat="44.82415" lon="2.04395">
        <ele>529.743</ele>
        <time>2014-10-21T09:22:18.166Z</time>
      </trkpt>
      <trkpt lat="44.82423" lon="2.0439">
        <ele>529.871</ele>
        <time>2014-10-21T09:22:25.989Z</time>
      </trkpt>
      <trkpt lat="44.82433" lon="2.04388">
        <ele>530.182</ele>
        <time>2014-10-21T09:22:35.926Z</time>
      </trkpt>
      <trkpt lat="44.82442" lon="2.04386">
        <ele>531.274</ele>
        <time>2014-10-21T09:22:46.338Z</time>
      </trkpt>
      <trkpt lat="44.82452" lon="2.04383">
        <ele>533.515</ele>
        <time>2014-10-21T09:22:58.549Z</time>
      </trkpt>
      <trkpt lat="44.82461" lon="2.04382">
        <ele>536.471</ele>
        <time>2014-10-21T09:23:09.628Z</time>
      </trkpt>
      <trkpt lat="44.82461" lon="2.04382">
        <ele>538.851</ele>
        <time>2014-10-21T09:23:10.738Z</time>
      </trkpt>
      <trkpt lat="44.82462" lon="2.04381">
        <ele>539.708</ele>
        <time>2014-10-21T09:23:16.753Z</time>
      </trkpt>
      <trkpt lat="44.8248" lon="2.04387">
        <ele>538.711</ele>
        <time>2014-10-21T09:26:05.629Z</time>
      </trkpt>
      <trkpt lat="44.8248" lon="2.04387">
        <ele>538.729</ele>
        <time>2014-10-21T09:26:06.632Z</time>
      </trkpt>
      <trkpt lat="44.8248" lon="2.04387">
        <ele>538.488</ele>
        <time>2014-10-21T09:26:06.732Z</time>
      </trkpt>
      <trkpt lat="44.8249" lon="2.04388">
        <ele>538.21</ele>
        <time>2014-10-21T09:26:25.391Z</time>
      </trkpt>
      <trkpt lat="44.82499" lon="2.04387">
        <ele>538.075</ele>
        <time>2014-10-21T09:26:33.535Z</time>
      </trkpt>
      <trkpt lat="44.82508" lon="2.04382">
        <ele>537.312</ele>
        <time>2014-10-21T09:26:40.759Z</time>
      </trkpt>
      <trkpt lat="44.82516" lon="2.04377">
        <ele>535.336</ele>
        <time>2014-10-21T09:26:49.190Z</time>
      </trkpt>
      <trkpt lat="44.82526" lon="2.04377">
        <ele>532.655</ele>
        <time>2014-10-21T09:26:57.566Z</time>
      </trkpt>
      <trkpt lat="44.82535" lon="2.04374">
        <ele>529.46</ele>
        <time>2014-10-21T09:27:05.452Z</time>
      </trkpt>
      <trkpt lat="44.82544" lon="2.0437">
        <ele>526.045</ele>
        <time>2014-10-21T09:27:14.639Z</time>
      </trkpt>
      <trkpt lat="44.82552" lon="2.04363">
        <ele>524.324</ele>
        <time>2014-10-21T09:27:23.941Z</time>
      </trkpt>
      <trkpt lat="44.8256" lon="2.04358">
        <ele>525.898</ele>
        <time>2014-10-21T09:27:32.836Z</time>
      </trkpt>
      <trkpt lat="44.8257" lon="2.04353">
        <ele>529.635</ele>
        <time>2014-10-21T09:27:40.342Z</time>
      </trkpt>
      <trkpt lat="44.82579" lon="2.04349">
        <ele>532.803</ele>
        <time>2014-10-21T09:27:46.560Z</time>
      </trkpt>
      <trkpt lat="44.82588" lon="2.04347">
        <ele>533.614</ele>
        <time>2014-10-21T09:27:52.876Z</time>
      </trkpt>
      <trkpt lat="44.82596" lon="2.04341">
        <ele>531.762</ele>
        <time>2014-10-21T09:27:59.791Z</time>
      </trkpt>
      <trkpt lat="44.82603" lon="2.0433">
        <ele>528.475</ele>
        <time>2014-10-21T09:28:07.884Z</time>
      </trkpt>
      <trkpt lat="44.8261" lon="2.04321">
        <ele>525.728</ele>
        <time>2014-10-21T09:28:16.881Z</time>
      </trkpt>
      <trkpt lat="44.82616" lon="2.04312">
        <ele>524.315</ele>
        <time>2014-10-21T09:28:26.667Z</time>
      </trkpt>
      <trkpt lat="44.82623" lon="2.04302">
        <ele>523.928</ele>
        <time>2014-10-21T09:28:36.510Z</time>
      </trkpt>
      <trkpt lat="44.8263" lon="2.04293">
        <ele>524.511</ele>
        <time>2014-10-21T09:28:44.440Z</time>
      </trkpt>
      <trkpt lat="44.82636" lon="2.04282">
        <ele>525.87</ele>
        <time>2014-10-21T09:28:53.121Z</time>
      </trkpt>
      <trkpt lat="44.82636" lon="2.0427">
        <ele>527.191</ele>
        <time>2014-10-21T09:29:02.523Z</time>
      </trkpt>
      <trkpt lat="44.82632" lon="2.04258">
        <ele>527.927</ele>
        <time>2014-10-21T09:29:13.179Z</time>
      </trkpt>
      <trkpt lat="44.82623" lon="2.04254">
        <ele>528.315</ele>
        <time>2014-10-21T09:29:24.269Z</time>
      </trkpt>
      <trkpt lat="44.82613" lon="2.04251">
        <ele>528.948</ele>
        <time>2014-10-21T09:29:35.702Z</time>
      </trkpt>
      <trkpt lat="44.82604" lon="2.04248">
        <ele>530.552</ele>
        <time>2014-10-21T09:29:45.914Z</time>
      </trkpt>
      <trkpt lat="44.82594" lon="2.04246">
        <ele>532.846</ele>
        <time>2014-10-21T09:29:56.826Z</time>
      </trkpt>
      <trkpt lat="44.82585" lon="2.04245">
        <ele>534.571</ele>
        <time>2014-10-21T09:30:06.324Z</time>
      </trkpt>
      <trkpt lat="44.82575" lon="2.04247">
        <ele>534.731</ele>
        <time>2014-10-21T09:30:14.953Z</time>
      </trkpt>
      <trkpt lat="44.82565" lon="2.04246">
        <ele>532.122</ele>
        <time>2014-10-21T09:30:24.534Z</time>
      </trkpt>
      <trkpt lat="44.82557" lon="2.0424">
        <ele>527.072</ele>
        <time>2014-10-21T09:30:34.923Z</time>
      </trkpt>
      <trkpt lat="44.82548" lon="2.04239">
        <ele>523.967</ele>
        <time>2014-10-21T09:30:46.039Z</time>
      </trkpt>
      <trkpt lat="44.82538" lon="2.04241">
        <ele>526.418</ele>
        <time>2014-10-21T09:30:55.256Z</time>
      </trkpt>
      <trkpt lat="44.82528" lon="2.04241">
        <ele>531.761</ele>
        <time>2014-10-21T09:31:01.965Z</time>
      </trkpt>
      <trkpt lat="44.82519" lon="2.04245">
        <ele>535.388</ele>
        <time>2014-10-21T09:31:08.651Z</time>
      </trkpt>
      <trkpt lat="44.82509" lon="2.04243">
        <ele>535.915</ele>
        <time>2014-10-21T09:31:16.508Z</time>
      </trkpt>
      <trkpt lat="44.82499" lon="2.04242">
        <ele>534.33</ele>
        <time>2014-10-21T09:31:25.915Z</time>
      </trkpt>
      <trkpt lat="44.82488" lon="2.04241">
        <ele>532.19</ele>
        <time>2014-10-21T09:31:35.147Z</time>
      </trkpt>
      <trkpt lat="44.82478" lon="2.04241">
        <ele>530.547</ele>
        <time>2014-10-21T09:31:42.379Z</time>
      </trkpt>
      <trkpt lat="44.82468" lon="2.04242">
        <ele>529.428</ele>
        <time>2014-10-21T09:31:49.723Z</time>
      </trkpt>
      <trkpt lat="44.82458" lon="2.04244">
        <ele>528.787</ele>
        <time>2014-10-21T09:31:57.174Z</time>
      </trkpt>
      <trkpt lat="44.82449" lon="2.04247">
        <ele>527.999</ele>
        <time>2014-10-21T09:32:03.873Z</time>
      </trkpt>
      <trkpt lat="44.8244" lon="2.04251">
        <ele>526.432</ele>
        <time>2014-10-21T09:32:12.602Z</time>
      </trkpt>
      <trkpt lat="44.82432" lon="2.0426">
        <ele>525.227</ele>
        <time>2014-10-21T09:32:23.272Z</time>
      </trkpt>
      <trkpt lat="44.82424" lon="2.04266">
        <ele>525.792</ele>
        <time>2014-10-21T09:32:33.933Z</time>
      </trkpt>
      <trkpt lat="44.82415" lon="2.04271">
        <ele>528.24</ele>
        <time>2014-10-21T09:32:43.421Z</time>
      </trkpt>
      <trkpt lat="44.82407" lon="2.04277">
        <ele>531.211</ele>
        <time>2014-10-21T09:32:52.561Z</time>
      </trkpt>
      <trkpt lat="44.82399" lon="2.04285">
        <ele>533.165</ele>
        <time>2014-10-21T09:33:02.183Z</time>
      </trkpt>
      <trkpt lat="44.82392" lon="2.04294">
        <ele>534.482</ele>
        <time>2014-10-21T09:33:11.253Z</time>
      </trkpt>
      <trkpt lat="44.82383" lon="2.04298">
        <ele>536.014</ele>
        <time>2014-10-21T09:33:19.120Z</time>
      </trkpt>
      <trkpt lat="44.82374" lon="2.04302">
        <ele>537.006</ele>
        <time>2014-10-21T09:33:27.091Z</time>
      </trkpt>
      <trkpt lat="44.82365" lon="2.04304">
        <ele>536.697</ele>
        <time>2014-10-21T09:33:35.072Z</time>
      </trkpt>
      <trkpt lat="44.82355" lon="2.04308">
        <ele>535.528</ele>
        <time>2014-10-21T09:33:42.968Z</time>
      </trkpt>
      <trkpt lat="44.82345" lon="2.04312">
        <ele>534.371</ele>
        <time>2014-10-21T09:33:50.384Z</time>
      </trkpt>
      <trkpt lat="44.82337" lon="2.04314">
        <ele>533.732</ele>
        <time>2014-10-21T09:33:58.040Z</time>
      </trkpt>
      <trkpt lat="44.82328" lon="2.04321">
        <ele>533.779</ele>
        <time>2014-10-21T09:34:05.893Z</time>
      </trkpt>
      <trkpt lat="44.82319" lon="2.04327">
        <ele>534.304</ele>
        <time>2014-10-21T09:34:14.562Z</time>
      </trkpt>
      <trkpt lat="44.82311" lon="2.04333">
        <ele>534.575</ele>
        <time>2014-10-21T09:34:22.819Z</time>
      </trkpt>
      <trkpt lat="44.82302" lon="2.04339">
        <ele>533.877</ele>
        <time>2014-10-21T09:34:31.291Z</time>
      </trkpt>
      <trkpt lat="44.82292" lon="2.04342">
        <ele>532.392</ele>
        <time>2014-10-21T09:34:39.817Z</time>
      </trkpt>
      <trkpt lat="44.82282" lon="2.04341">
        <ele>530.543</ele>
        <time>2014-10-21T09:34:48.551Z</time>
      </trkpt>
      <trkpt lat="44.82275" lon="2.04331">
        <ele>528.541</ele>
        <time>2014-10-21T09:34:57.325Z</time>
      </trkpt>
      <trkpt lat="44.82269" lon="2.04321">
        <ele>527.205</ele>
        <time>2014-10-21T09:35:04.534Z</time>
      </trkpt>
      <trkpt lat="44.82263" lon="2.04311">
        <ele>527.125</ele>
        <time>2014-10-21T09:35:11.656Z</time>
      </trkpt>
      <trkpt lat="44.82258" lon="2.043">
        <ele>527.604</ele>
        <time>2014-10-21T09:35:20.934Z</time>
      </trkpt>
      <trkpt lat="44.82255" lon="2.04287">
        <ele>527.929</ele>
        <time>2014-10-21T09:35:31.430Z</time>
      </trkpt>
      <trkpt lat="44.82261" lon="2.04275">
        <ele>528.495</ele>
        <time>2014-10-21T09:35:43.900Z</time>
      </trkpt>
      <trkpt lat="44.82266" lon="2.04265">
        <ele>529.949</ele>
        <time>2014-10-21T09:35:53.183Z</time>
      </trkpt>
      <trkpt lat="44.82273" lon="2.04255">
        <ele>531.55</ele>
        <time>2014-10-21T09:36:02.901Z</time>
      </trkpt>
      <trkpt lat="44.8228" lon="2.04246">
        <ele>532.092</ele>
        <time>2014-10-21T09:36:11.863Z</time>
      </trkpt>
      <trkpt lat="44.82292" lon="2.04234">
        <ele>531.706</ele>
        <time>2014-10-21T09:36:23.515Z</time>
      </trkpt>
      <trkpt lat="44.82299" lon="2.04226">
        <ele>531.456</ele>
        <time>2014-10-21T09:36:30.625Z</time>
      </trkpt>
      <trkpt lat="44.82307" lon="2.04217">
        <ele>531.869</ele>
        <time>2014-10-21T09:36:38.368Z</time>
      </trkpt>
      <trkpt lat="44.82315" lon="2.04208">
        <ele>532.515</ele>
        <time>2014-10-21T09:36:46.664Z</time>
      </trkpt>
      <trkpt lat="44.82325" lon="2.04206">
        <ele>533.415</ele>
        <time>2014-10-21T09:36:54.276Z</time>
      </trkpt>
      <trkpt lat="44.82334" lon="2.04204">
        <ele>535.018</ele>
        <time>2014-10-21T09:37:02.802Z</time>
      </trkpt>
      <trkpt lat="44.82343" lon="2.042">
        <ele>536.732</ele>
        <time>2014-10-21T09:37:11.834Z</time>
      </trkpt>
      <trkpt lat="44.82352" lon="2.04193">
        <ele>537.284</ele>
        <time>2014-10-21T09:37:20.970Z</time>
      </trkpt>
      <trkpt lat="44.8236" lon="2.04186">
        <ele>536.178</ele>
        <time>2014-10-21T09:37:29.401Z</time>
      </trkpt>
      <trkpt lat="44.82367" lon="2.04177">
        <ele>533.762</ele>
        <time>2014-10-21T09:37:38.038Z</time>
      </trkpt>
      <trkpt lat="44.82374" lon="2.04168">
        <ele>531.042</ele>
        <time>2014-10-21T09:37:46.072Z</time>
      </trkpt>
      <trkpt lat="44.82378" lon="2.04156">
        <ele>529.172</ele>
        <time>2014-10-21T09:37:54.691Z</time>
      </trkpt>
      <trkpt lat="44.82384" lon="2.04143">
        <ele>528.582</ele>
        <time>2014-10-21T09:38:04.159Z</time>
      </trkpt>
      <trkpt lat="44.82388" lon="2.0413">
        <ele>528.921</ele>
        <time>2014-10-21T09:38:12.403Z</time>
      </trkpt>
      <trkpt lat="44.82393" lon="2.04118">
        <ele>529.657</ele>
        <time>2014-10-21T09:38:20.571Z</time>
      </trkpt>
      <trkpt lat="44.824" lon="2.04108">
        <ele>530.244</ele>
        <time>2014-10-21T09:38:29.454Z</time>
      </trkpt>
      <trkpt lat="44.82408" lon="2.041">
        <ele>530.718</ele>
        <time>2014-10-21T09:38:39.252Z</time>
      </trkpt>
      <trkpt lat="44.82417" lon="2.04095">
        <ele>531.614</ele>
        <time>2014-10-21T09:38:48.786Z</time>
      </trkpt>
      <trkpt lat="44.82425" lon="2.04088">
        <ele>533.131</ele>
        <time>2014-10-21T09:38:56.774Z</time>
      </trkpt>
      <trkpt lat="44.82434" lon="2.04085">
        <ele>534.756</ele>
        <time>2014-10-21T09:39:05.404Z</time>
      </trkpt>
      <trkpt lat="44.82443" lon="2.04081">
        <ele>535.426</ele>
        <time>2014-10-21T09:39:14.355Z</time>
      </trkpt>
      <trkpt lat="44.82452" lon="2.04077">
        <ele>534.787</ele>
        <time>2014-10-21T09:39:23.021Z</time>
      </trkpt>
      <trkpt lat="44.82461" lon="2.04076">
        <ele>533.887</ele>
        <time>2014-10-21T09:39:32.545Z</time>
      </trkpt>
      <trkpt lat="44.82471" lon="2.04074">
        <ele>534.062</ele>
        <time>2014-10-21T09:39:42.147Z</time>
      </trkpt>
      <trkpt lat="44.82481" lon="2.04074">
        <ele>535.631</ele>
        <time>2014-10-21T09:39:50.089Z</time>
      </trkpt>
      <trkpt lat="44.8249" lon="2.04075">
        <ele>537.804</ele>
        <time>2014-10-21T09:39:58.223Z</time>
      </trkpt>
      <trkpt lat="44.82499" lon="2.04072">
        <ele>539.7</ele>
        <time>2014-10-21T09:40:07.662Z</time>
      </trkpt>
      <trkpt lat="44.82509" lon="2.04071">
        <ele>541.787</ele>
        <time>2014-10-21T09:40:18.617Z</time>
      </trkpt>
      <trkpt lat="44.82518" lon="2.04065">
        <ele>544.449</ele>
        <time>2014-10-21T09:40:28.736Z</time>
      </trkpt>
      <trkpt lat="44.82527" lon="2.04061">
        <ele>545.911</ele>
        <time>2014-10-21T09:40:36.759Z</time>
      </trkpt>
      <trkpt lat="44.82535" lon="2.04052">
        <ele>544.944</ele>
        <time>2014-10-21T09:40:45.371Z</time>
      </trkpt>
      <trkpt lat="44.82543" lon="2.04045">
        <ele>543.494</ele>
        <time>2014-10-21T09:40:54.380Z</time>
      </trkpt>
      <trkpt lat="44.82552" lon="2.04041">
        <ele>543.923</ele>
        <time>2014-10-21T09:41:04.319Z</time>
      </trkpt>
      <trkpt lat="44.82562" lon="2.04038">
        <ele>546.121</ele>
        <time>2014-10-21T09:41:14.762Z</time>
      </trkpt>
      <trkpt lat="44.82571" lon="2.04031">
        <ele>548.394</ele>
        <time>2014-10-21T09:41:24.832Z</time>
      </trkpt>
      <trkpt lat="44.82579" lon="2.04025">
        <ele>548.877</ele>
        <time>2014-10-21T09:41:32.676Z</time>
      </trkpt>
      <trkpt lat="44.82588" lon="2.0402">
        <ele>547.239</ele>
        <time>2014-10-21T09:41:41.088Z</time>
      </trkpt>
      <trkpt lat="44.82596" lon="2.04017">
        <ele>545.33</ele>
        <time>2014-10-21T09:41:48.758Z</time>
      </trkpt>
      <trkpt lat="44.82606" lon="2.04014">
        <ele>544.833</ele>
        <time>2014-10-21T09:41:55.822Z</time>
      </trkpt>
      <trkpt lat="44.82616" lon="2.04012">
        <ele>545.297</ele>
        <time>2014-10-21T09:42:02.516Z</time>
      </trkpt>
      <trkpt lat="44.82625" lon="2.04008">
        <ele>544.667</ele>
        <time>2014-10-21T09:42:08.869Z</time>
      </trkpt>
      <trkpt lat="44.82631" lon="2.03998">
        <ele>541.593</ele>
        <time>2014-10-21T09:42:15.613Z</time>
      </trkpt>
      <trkpt lat="44.8264" lon="2.0399">
        <ele>536.745</ele>
        <time>2014-10-21T09:42:23.250Z</time>
      </trkpt>
      <trkpt lat="44.82649" lon="2.03985">
        <ele>532.323</ele>
        <time>2014-10-21T09:42:31.023Z</time>
      </trkpt>
      <trkpt lat="44.82658" lon="2.03979">
        <ele>530.223</ele>
        <time>2014-10-21T09:42:39.260Z</time>
      </trkpt>
      <trkpt lat="44.82666" lon="2.03971">
        <ele>530.683</ele>
        <time>2014-10-21T09:42:46.806Z</time>
      </trkpt>
      <trkpt lat="44.82674" lon="2.03962">
        <ele>532.563</ele>
        <time>2014-10-21T09:42:54.047Z</time>
      </trkpt>
      <trkpt lat="44.82682" lon="2.03954">
        <ele>534.58</ele>
        <time>2014-10-21T09:43:01.748Z</time>
      </trkpt>
      <trkpt lat="44.82691" lon="2.03948">
        <ele>535.883</ele>
        <time>2014-10-21T09:43:10.351Z</time>
      </trkpt>
      <trkpt lat="44.82699" lon="2.03943">
        <ele>536.667</ele>
        <time>2014-10-21T09:43:18.515Z</time>
      </trkpt>
      <trkpt lat="44.82708" lon="2.03942">
        <ele>537.752</ele>
        <time>2014-10-21T09:43:26.923Z</time>
      </trkpt>
      <trkpt lat="44.82719" lon="2.0394">
        <ele>539.636</ele>
        <time>2014-10-21T09:43:35.223Z</time>
      </trkpt>
      <trkpt lat="44.82729" lon="2.03942">
        <ele>541.669</ele>
        <time>2014-10-21T09:43:42.529Z</time>
      </trkpt>
      <trkpt lat="44.82736" lon="2.03954">
        <ele>542.442</ele>
        <time>2014-10-21T09:43:49.992Z</time>
      </trkpt>
      <trkpt lat="44.82741" lon="2.03967">
        <ele>541.535</ele>
        <time>2014-10-21T09:43:57.543Z</time>
      </trkpt>
      <trkpt lat="44.82746" lon="2.0398">
        <ele>540.111</ele>
        <time>2014-10-21T09:44:04.653Z</time>
      </trkpt>
      <trkpt lat="44.82749" lon="2.03993">
        <ele>539.177</ele>
        <time>2014-10-21T09:44:11.947Z</time>
      </trkpt>
      <trkpt lat="44.82754" lon="2.04006">
        <ele>538.052</ele>
        <time>2014-10-21T09:44:19.990Z</time>
      </trkpt>
      <trkpt lat="44.82756" lon="2.04019">
        <ele>536.255</ele>
        <time>2014-10-21T09:44:27.459Z</time>
      </trkpt>
      <trkpt lat="44.82758" lon="2.04032">
        <ele>534.677</ele>
        <time>2014-10-21T09:44:34.619Z</time>
      </trkpt>
      <trkpt lat="44.82759" lon="2.04045">
        <ele>533.887</ele>
        <time>2014-10-21T09:44:41.767Z</time>
      </trkpt>
      <trkpt lat="44.82761" lon="2.04057">
        <ele>533.375</ele>
        <time>2014-10-21T09:44:49.280Z</time>
      </trkpt>
      <trkpt lat="44.82764" lon="2.0407">
        <ele>532.97</ele>
        <time>2014-10-21T09:44:58.622Z</time>
      </trkpt>
      <trkpt lat="44.82768" lon="2.04082">
        <ele>532.789</ele>
        <time>2014-10-21T09:45:09.642Z</time>
      </trkpt>
      <trkpt lat="44.82768" lon="2.04082">
        <ele>532.619</ele>
        <time>2014-10-21T09:45:11.641Z</time>
      </trkpt>
      <trkpt lat="44.82768" lon="2.04082">
        <ele>532.331</ele>
        <time>2014-10-21T09:45:11.741Z</time>
      </trkpt>
      <trkpt lat="44.82768" lon="2.04097">
        <ele>532.123</ele>
        <time>2014-10-21T09:45:36.184Z</time>
      </trkpt>
      <trkpt lat="44.82763" lon="2.04109">
        <ele>532.203</ele>
        <time>2014-10-21T09:45:45.412Z</time>
      </trkpt>
      <trkpt lat="44.82757" lon="2.04119">
        <ele>532.597</ele>
        <time>2014-10-21T09:45:53.025Z</time>
      </trkpt>
      <trkpt lat="44.8275" lon="2.04129">
        <ele>532.987</ele>
        <time>2014-10-21T09:46:01.467Z</time>
      </trkpt>
      <trkpt lat="44.82743" lon="2.04137">
        <ele>533.136</ele>
        <time>2014-10-21T09:46:10.106Z</time>
      </trkpt>
      <trkpt lat="44.82736" lon="2.04146">
        <ele>532.945</ele>
        <time>2014-10-21T09:46:19.147Z</time>
      </trkpt>
      <trkpt lat="44.82731" lon="2.04158">
        <ele>532.469</ele>
        <time>2014-10-21T09:46:28.250Z</time>
      </trkpt>
      <trkpt lat="44.82731" lon="2.04171">
        <ele>532.049</ele>
        <time>2014-10-21T09:46:36.854Z</time>
      </trkpt>
      <trkpt lat="44.82734" lon="2.04184">
        <ele>532.178</ele>
        <time>2014-10-21T09:46:45.584Z</time>
      </trkpt>
      <trkpt lat="44.8274" lon="2.04196">
        <ele>533.025</ele>
        <time>2014-10-21T09:46:55.133Z</time>
      </trkpt>
      <trkpt lat="44.82746" lon="2.04205">
        <ele>534.229</ele>
        <time>2014-10-21T09:47:03.915Z</time>
      </trkpt>
      <trkpt lat="44.82754" lon="2.04213">
        <ele>535.894</ele>
        <time>2014-10-21T09:47:11.893Z</time>
      </trkpt>
      <trkpt lat="44.82761" lon="2.04221">
        <ele>538.316</ele>
        <time>2014-10-21T09:47:19.185Z</time>
      </trkpt>
      <trkpt lat="44.82768" lon="2.04231">
        <ele>540.548</ele>
        <time>2014-10-21T09:47:26.191Z</time>
      </trkpt>
      <trkpt lat="44.82774" lon="2.04242">
        <ele>541.631</ele>
        <time>2014-10-21T09:47:33.808Z</time>
      </trkpt>
      <trkpt lat="44.82779" lon="2.04254">
        <ele>541.801</ele>
        <time>2014-10-21T09:47:40.920Z</time>
      </trkpt>
      <trkpt lat="44.82783" lon="2.04266">
        <ele>541.32</ele>
        <time>2014-10-21T09:47:48.065Z</time>
      </trkpt>
      <trkpt lat="44.82783" lon="2.04279">
        <ele>540.278</ele>
        <time>2014-10-21T09:47:55.020Z</time>
      </trkpt>
      <trkpt lat="44.82786" lon="2.04291">
        <ele>539.259</ele>
        <time>2014-10-21T09:48:02.092Z</time>
      </trkpt>
      <trkpt lat="44.82792" lon="2.04304">
        <ele>538.752</ele>
        <time>2014-10-21T09:48:09.548Z</time>
      </trkpt>
      <trkpt lat="44.82795" lon="2.04316">
        <ele>538.589</ele>
        <time>2014-10-21T09:48:16.405Z</time>
      </trkpt>
      <trkpt lat="44.828" lon="2.04328">
        <ele>538.107</ele>
        <time>2014-10-21T09:48:24.060Z</time>
      </trkpt>
      <trkpt lat="44.82804" lon="2.04341">
        <ele>536.894</ele>
        <time>2014-10-21T09:48:32.146Z</time>
      </trkpt>
      <trkpt lat="44.82808" lon="2.04353">
        <ele>535.059</ele>
        <time>2014-10-21T09:48:39.982Z</time>
      </trkpt>
      <trkpt lat="44.82812" lon="2.04365">
        <ele>533.019</ele>
        <time>2014-10-21T09:48:47.246Z</time>
      </trkpt>
      <trkpt lat="44.82815" lon="2.04376">
        <ele>531.495</ele>
        <time>2014-10-21T09:48:54.130Z</time>
      </trkpt>
      <trkpt lat="44.8282" lon="2.04389">
        <ele>531.334</ele>
        <time>2014-10-21T09:49:01.845Z</time>
      </trkpt>
      <trkpt lat="44.82824" lon="2.04401">
        <ele>532.375</ele>
        <time>2014-10-21T09:49:08.899Z</time>
      </trkpt>
      <trkpt lat="44.82828" lon="2.04412">
        <ele>533.724</ele>
        <time>2014-10-21T09:49:15.827Z</time>
      </trkpt>
      <trkpt lat="44.82833" lon="2.04424">
        <ele>534.728</ele>
        <time>2014-10-21T09:49:23.018Z</time>
      </trkpt>
      <trkpt lat="44.82837" lon="2.04436">
        <ele>535.23</ele>
        <time>2014-10-21T09:49:30.025Z</time>
      </trkpt>
      <trkpt lat="44.82841" lon="2.04449">
        <ele>535.284</ele>
        <time>2014-10-21T09:49:37.305Z</time>
      </trkpt>
      <trkpt lat="44.8284" lon="2.04463">
        <ele>534.808</ele>
        <time>2014-10-21T09:49:45.325Z</time>
      </trkpt>
      <trkpt lat="44.82844" lon="2.04477">
        <ele>534.137</ele>
        <time>2014-10-21T09:49:54.558Z</time>
      </trkpt>
      <trkpt lat="44.82849" lon="2.04489">
        <ele>533.666</ele>
        <time>2014-10-21T09:50:03.335Z</time>
      </trkpt>
      <trkpt lat="44.82856" lon="2.04499">
        <ele>533.48</ele>
        <time>2014-10-21T09:50:11.889Z</time>
      </trkpt>
      <trkpt lat="44.82862" lon="2.0451">
        <ele>533.748</ele>
        <time>2014-10-21T09:50:20.291Z</time>
      </trkpt>
      <trkpt lat="44.82868" lon="2.04519">
        <ele>535.203</ele>
        <time>2014-10-21T09:50:28.045Z</time>
      </trkpt>
      <trkpt lat="44.82876" lon="2.04528">
        <ele>537.804</ele>
        <time>2014-10-21T09:50:36.685Z</time>
      </trkpt>
      <trkpt lat="44.82883" lon="2.04539">
        <ele>539.957</ele>
        <time>2014-10-21T09:50:44.754Z</time>
      </trkpt>
      <trkpt lat="44.82889" lon="2.04551">
        <ele>540.136</ele>
        <time>2014-10-21T09:50:51.401Z</time>
      </trkpt>
      <trkpt lat="44.82893" lon="2.04563">
        <ele>538.936</ele>
        <time>2014-10-21T09:50:57.367Z</time>
      </trkpt>
      <trkpt lat="44.82892" lon="2.04577">
        <ele>537.703</ele>
        <time>2014-10-21T09:51:04.004Z</time>
      </trkpt>
      <trkpt lat="44.82884" lon="2.04587">
        <ele>536.986</ele>
        <time>2014-10-21T09:51:10.544Z</time>
      </trkpt>
      <trkpt lat="44.82875" lon="2.04593">
        <ele>536.495</ele>
        <time>2014-10-21T09:51:16.828Z</time>
      </trkpt>
      <trkpt lat="44.82866" lon="2.04597">
        <ele>536.047</ele>
        <time>2014-10-21T09:51:23.116Z</time>
      </trkpt>
      <trkpt lat="44.82857" lon="2.046">
        <ele>536.262</ele>
        <time>2014-10-21T09:51:29.568Z</time>
      </trkpt>
      <trkpt lat="44.82848" lon="2.04604">
        <ele>537.659</ele>
        <time>2014-10-21T09:51:36.930Z</time>
      </trkpt>
      <trkpt lat="44.8284" lon="2.0461">
        <ele>539.468</ele>
        <time>2014-10-21T09:51:44.883Z</time>
      </trkpt>
      <trkpt lat="44.82832" lon="2.04617">
        <ele>540.246</ele>
        <time>2014-10-21T09:51:53.962Z</time>
      </trkpt>
      <trkpt lat="44.82826" lon="2.04628">
        <ele>539.66</ele>
        <time>2014-10-21T09:52:03.228Z</time>
      </trkpt>
      <trkpt lat="44.82819" lon="2.04638">
        <ele>538.649</ele>
        <time>2014-10-21T09:52:12.067Z</time>
      </trkpt>
      <trkpt lat="44.82813" lon="2.04648">
        <ele>538.165</ele>
        <time>2014-10-21T09:52:20.228Z</time>
      </trkpt>
      <trkpt lat="44.82811" lon="2.04662">
        <ele>538.497</ele>
        <time>2014-10-21T09:52:28.596Z</time>
      </trkpt>
      <trkpt lat="44.82808" lon="2.04675">
        <ele>539.403</ele>
        <time>2014-10-21T09:52:36.566Z</time>
      </trkpt>
      <trkpt lat="44.82804" lon="2.04686">
        <ele>540.239</ele>
        <time>2014-10-21T09:52:44.889Z</time>
      </trkpt>
      <trkpt lat="44.82799" lon="2.04697">
        <ele>540.714</ele>
        <time>2014-10-21T09:52:52.803Z</time>
      </trkpt>
      <trkpt lat="44.8279" lon="2.04705">
        <ele>540.992</ele>
        <time>2014-10-21T09:53:00.140Z</time>
      </trkpt>
      <trkpt lat="44.82783" lon="2.04715">
        <ele>541.594</ele>
        <time>2014-10-21T09:53:07.131Z</time>
      </trkpt>
      <trkpt lat="44.82781" lon="2.04729">
        <ele>542.784</ele>
        <time>2014-10-21T09:53:15.105Z</time>
      </trkpt>
      <trkpt lat="44.82779" lon="2.04742">
        <ele>544.254</ele>
        <time>2014-10-21T09:53:25.365Z</time>
      </trkpt>
      <trkpt lat="44.82779" lon="2.04756">
        <ele>545.442</ele>
        <time>2014-10-21T09:53:35.347Z</time>
      </trkpt>
      <trkpt lat="44.82777" lon="2.04769">
        <ele>545.952</ele>
        <time>2014-10-21T09:53:43.253Z</time>
      </trkpt>
      <trkpt lat="44.82769" lon="2.04777">
        <ele>545.185</ele>
        <time>2014-10-21T09:53:49.995Z</time>
      </trkpt>
      <trkpt lat="44.82756" lon="2.04782">
        <ele>543.231</ele>
        <time>2014-10-21T09:53:59.246Z</time>
      </trkpt>
      <trkpt lat="44.82752" lon="2.04794">
        <ele>541.757</ele>
        <time>2014-10-21T09:54:05.971Z</time>
      </trkpt>
      <trkpt lat="44.82757" lon="2.04807">
        <ele>542.393</ele>
        <time>2014-10-21T09:54:15.430Z</time>
      </trkpt>
      <trkpt lat="44.8276" lon="2.04821">
        <ele>544.935</ele>
        <time>2014-10-21T09:54:24.309Z</time>
      </trkpt>
      <trkpt lat="44.82762" lon="2.04834">
        <ele>547.999</ele>
        <time>2014-10-21T09:54:32.215Z</time>
      </trkpt>
      <trkpt lat="44.82762" lon="2.04847">
        <ele>550.109</ele>
        <time>2014-10-21T09:54:39.646Z</time>
      </trkpt>
      <trkpt lat="44.82761" lon="2.04848">
        <ele>550.092</ele>
        <time>2014-10-21T09:54:40.643Z</time>
      </trkpt>
    </trkseg>
  </trk>
</gpx>